Provisional Data: Little Juniata River near Tipton, PA


Please select a monitoring station.
Please select start date.
Please select start date.

Toggle Unit: C/F Toggle Unit: C/F
Sample Time Temperature (C) Temperature (F) Specific Conductivity (mS/cm) pH   Turbidity (NTU+) DO (mg/L)
3/23/2021 12:00:00 AM 7.76 45.968 0.17 7.47 3 11.16
3/23/2021 12:15:00 AM 7.65 45.77 0.169 7.46 3.13 11.18
3/23/2021 12:30:00 AM 7.54 45.572 0.168 7.45 3.26 11.2
3/23/2021 12:45:00 AM 7.44 45.392 0.167 7.44 3.24 11.22
3/23/2021 1:00:00 AM 7.34 45.212 0.167 7.44 3.33 11.24
3/23/2021 1:15:00 AM 7.24 45.032 0.166 7.43 3.26 11.26
3/23/2021 1:30:00 AM 7.13 44.834 0.167 7.42 3.24 11.29
3/23/2021 1:45:00 AM 7.02 44.636 0.168 7.42 3.14 11.32
3/23/2021 2:00:00 AM 6.92 44.456 0.17 7.41 3.03 11.33
3/23/2021 2:15:00 AM 6.82 44.276 0.171 7.41 2.9 11.36
3/23/2021 2:30:00 AM 6.73 44.114 0.171 7.41 2.93 11.38
3/23/2021 2:45:00 AM 6.63 43.934 0.17 7.4 2.88 11.42
3/23/2021 3:00:00 AM 6.54 43.772 0.169 7.4 2.95 11.45
3/23/2021 3:15:00 AM 6.45 43.61 0.168 7.4 2.93 11.49
3/23/2021 3:30:00 AM 6.36 43.448 0.168 7.4 3.13 11.52
3/23/2021 3:45:00 AM 6.27 43.286 0.167 7.4 2.96 11.55
3/23/2021 4:00:00 AM 6.18 43.124 0.167 7.4 2.97 11.58
3/23/2021 4:15:00 AM 6.1 42.98 0.168 7.39 3.16 11.59
3/23/2021 4:30:00 AM 6.02 42.836 0.17 7.39 3.27 11.63
3/23/2021 4:45:00 AM 5.96 42.728 0.172 7.39 3.14 11.64
3/23/2021 5:00:00 AM 5.89 42.602 0.173 7.39 3.32 11.66
3/23/2021 5:15:00 AM 5.82 42.476 0.172 7.39 3.3 11.68
3/23/2021 5:30:00 AM 5.75 42.35 0.171 7.39 3.23 11.72
3/23/2021 5:45:00 AM 5.69 42.242 0.17 7.39 3.22 11.74
3/23/2021 6:00:00 AM 5.62 42.116 0.169 7.39 3.15 11.77
3/23/2021 6:15:00 AM 5.56 42.008 0.169 7.39 3.08 11.79
3/23/2021 6:30:00 AM 5.49 41.882 0.168 7.39 3.14 11.82
3/23/2021 6:45:00 AM 5.43 41.774 0.168 7.39 3.07 11.84
3/23/2021 7:00:00 AM 5.37 41.666 0.168 7.39 3.15 11.87
3/23/2021 7:15:00 AM 5.31 41.558 0.17 7.39 3 11.9
3/23/2021 7:30:00 AM 5.26 41.468 0.171 7.4 3.03 11.94
3/23/2021 7:45:00 AM 5.21 41.378 0.172 7.41 2.9 12.01
3/23/2021 8:00:00 AM 5.17 41.306 0.171 7.42 2.82 12.1
3/23/2021 8:15:00 AM 5.13 41.234 0.169 7.44 2.83 12.22
3/23/2021 8:30:00 AM 5.11 41.198 0.168 7.47 2.79 12.4
3/23/2021 8:45:00 AM 5.12 41.216 0.167 7.52 2.67 12.64
3/23/2021 9:00:00 AM 5.14 41.252 0.165 7.57 2.59 12.83
3/23/2021 9:15:00 AM 5.17 41.306 0.164 7.63 2.65 13.02
3/23/2021 9:30:00 AM 5.21 41.378 0.163 7.69 2.49 13.19
3/23/2021 9:45:00 AM 5.26 41.468 0.164 7.74 2.48 13.3
3/23/2021 10:00:00 AM 5.36 41.648 0.165 7.81 2.51 13.41
3/23/2021 10:15:00 AM 5.48 41.864 0.166 7.88 2.43 13.55
3/23/2021 10:30:00 AM 5.6 42.08 0.166 7.97 2.39 13.68
3/23/2021 10:45:00 AM 5.72 42.296 0.166 8.07 2.42 13.77
3/23/2021 11:00:00 AM 5.85 42.53 0.164 8.18 2.51 13.9
3/23/2021 11:15:00 AM 6 42.8 0.163 8.29 2.37 14
3/23/2021 11:30:00 AM 6.17 43.106 0.162 8.39 2.4 14.05
3/23/2021 11:45:00 AM 6.29 43.322 0.161 8.49 2.31 14.07
3/23/2021 12:00:00 PM 6.47 43.646 0.161 8.58 2.35 14.12
3/23/2021 12:15:00 PM 6.57 43.826 0.161 8.65 2.35 14.15
3/23/2021 12:30:00 PM 6.73 44.114 0.162 8.71 2.35 14.2
3/23/2021 12:45:00 PM 6.95 44.51 0.164 8.77 2.32 14.26
3/23/2021 1:00:00 PM 7.12 44.816 0.165 8.82 2.26 14.27
3/23/2021 1:15:00 PM 7.3 45.14 0.166 8.88 2.36 14.26
3/23/2021 1:30:00 PM 7.43 45.374 0.167 8.92 2.39 14.24
3/23/2021 1:45:00 PM 7.57 45.626 0.167 8.97 2.36 14.24
3/23/2021 2:00:00 PM 7.69 45.842 0.167 9.01 2.36 14.24
3/23/2021 2:15:00 PM 7.83 46.094 0.167 9.05 2.35 14.25
3/23/2021 2:30:00 PM 8.01 46.418 0.166 9.09 2.28 14.28
3/23/2021 2:45:00 PM 8.11 46.598 0.166 9.11 2.35 14.23
3/23/2021 3:00:00 PM 8.23 46.814 0.166 9.14 2.47 14.24
3/23/2021 3:15:00 PM 8.35 47.03 0.168 9.15 2.35 14.21
3/23/2021 3:30:00 PM 8.44 47.192 0.17 9.15 2.4 14.16
3/23/2021 3:45:00 PM 8.6 47.48 0.172 9.17 2.38 14.16
3/23/2021 4:00:00 PM 8.72 47.696 0.172 9.19 2.42 14.11
3/23/2021 4:15:00 PM 8.79 47.822 0.171 9.2 2.45 14.01
3/23/2021 4:30:00 PM 8.87 47.966 0.17 9.21 2.4 13.92
3/23/2021 4:45:00 PM 8.94 48.092 0.169 9.21 2.44 13.81
3/23/2021 5:00:00 PM 9.01 48.218 0.168 9.21 2.56 13.69
3/23/2021 5:15:00 PM 9.09 48.362 0.167 9.22 2.51 13.63
3/23/2021 5:30:00 PM 9.15 48.47 0.166 9.21 2.4 13.47
3/23/2021 5:45:00 PM 9.18 48.524 0.166 9.17 2.51 13.29
3/23/2021 6:00:00 PM 9.21 48.578 0.167 9.13 2.45 13.15
3/23/2021 6:15:00 PM 9.26 48.668 0.169 9.1 2.46 13.09
3/23/2021 6:30:00 PM 9.28 48.704 0.17 9.04 2.52 12.87
3/23/2021 6:45:00 PM 9.28 48.704 0.169 8.96 2.42 12.62
3/23/2021 7:00:00 PM 9.29 48.722 0.167 8.88 2.51 12.43
3/23/2021 7:15:00 PM 9.3 48.74 0.165 8.8 2.47 12.22
3/23/2021 7:30:00 PM 9.29 48.722 0.162 8.69 2.54 12.01
3/23/2021 7:45:00 PM 9.27 48.686 0.16 8.57 2.59 11.85
3/23/2021 8:00:00 PM 9.25 48.65 0.159 8.43 2.71 11.68
3/23/2021 8:15:00 PM 9.22 48.596 0.158 8.27 2.65 11.54
3/23/2021 8:30:00 PM 9.21 48.578 0.159 8.12 2.71 11.43
3/23/2021 8:45:00 PM 9.2 48.56 0.162 7.99 2.6 11.34
3/23/2021 9:00:00 PM 9.17 48.506 0.166 7.88 2.69 11.25
3/23/2021 9:15:00 PM 9.14 48.452 0.169 7.8 2.75 11.16
3/23/2021 9:30:00 PM 9.12 48.416 0.17 7.75 2.76 11.09
3/23/2021 9:45:00 PM 9.09 48.362 0.169 7.7 2.62 11.03
3/23/2021 10:00:00 PM 9.07 48.326 0.167 7.67 2.69 10.99
3/23/2021 10:15:00 PM 9.04 48.272 0.167 7.65 2.64 10.96
3/23/2021 10:30:00 PM 9.02 48.236 0.166 7.62 2.72 10.93
3/23/2021 10:45:00 PM 8.99 48.182 0.166 7.6 2.72 10.91
3/23/2021 11:00:00 PM 8.95 48.11 0.167 7.59 2.67 10.9
3/23/2021 11:15:00 PM 8.92 48.056 0.169 7.57 2.65 10.88
3/23/2021 11:30:00 PM 8.88 47.984 0.173 7.55 2.69 10.85
3/23/2021 11:45:00 PM 8.84 47.912 0.176 7.54 2.62 10.83
3/24/2021 12:00:00 AM 8.8 47.84 0.178 7.53 2.78 10.82
3/24/2021 12:15:00 AM 8.77 47.786 0.179 7.52 2.8 10.82
3/24/2021 12:30:00 AM 8.75 47.75 0.179 7.51 2.8 10.82
3/24/2021 12:45:00 AM 8.72 47.696 0.179 7.5 2.65 10.82
3/24/2021 1:00:00 AM 8.71 47.678 0.179 7.5 2.63 10.81
3/24/2021 1:15:00 AM 8.68 47.624 0.179 7.49 2.64 10.82
3/24/2021 1:30:00 AM 8.65 47.57 0.18 7.48 2.64 10.81
3/24/2021 1:45:00 AM 8.62 47.516 0.181 7.48 2.76 10.81
3/24/2021 2:00:00 AM 8.58 47.444 0.184 7.47 2.75 10.81
3/24/2021 2:15:00 AM 8.56 47.408 0.187 7.46 2.65 10.8
3/24/2021 2:30:00 AM 8.53 47.354 0.189 7.46 2.77 10.79
3/24/2021 2:45:00 AM 8.51 47.318 0.19 7.46 2.67 10.79
3/24/2021 3:00:00 AM 8.49 47.282 0.189 7.45 2.72 10.79
3/24/2021 3:15:00 AM 8.47 47.246 0.187 7.45 2.77 10.8
3/24/2021 3:30:00 AM 8.46 47.228 0.185 7.45 2.82 10.81
3/24/2021 3:45:00 AM 8.44 47.192 0.183 7.45 2.73 10.82
3/24/2021 4:00:00 AM 8.42 47.156 0.181 7.44 2.73 10.83
3/24/2021 4:15:00 AM 8.4 47.12 0.18 7.44 2.73 10.84
3/24/2021 4:30:00 AM 8.38 47.084 0.18 7.44 2.65 10.84
3/24/2021 4:45:00 AM 8.36 47.048 0.181 7.43 2.61 10.84
3/24/2021 5:00:00 AM 8.35 47.03 0.182 7.43 2.72 10.84
3/24/2021 5:15:00 AM 8.33 46.994 0.183 7.43 2.65 10.83
3/24/2021 5:30:00 AM 8.32 46.976 0.184 7.43 2.57 10.83
3/24/2021 5:45:00 AM 8.3 46.94 0.183 7.42 2.6 10.84
3/24/2021 6:00:00 AM 8.29 46.922 0.182 7.42 2.77 10.85
3/24/2021 6:15:00 AM 8.28 46.904 0.18 7.42 3.1 10.85
3/24/2021 6:30:00 AM 8.26 46.868 0.179 7.42 2.75 10.87
3/24/2021 6:45:00 AM 8.25 46.85 0.177 7.42 2.69 10.87
3/24/2021 7:00:00 AM 8.23 46.814 0.176 7.41 3.49 10.89
3/24/2021 7:15:00 AM 8.21 46.778 0.175 7.41 2.64 10.89
3/24/2021 7:30:00 AM 8.2 46.76 0.176 7.41 2.63 10.89
3/24/2021 7:45:00 AM 8.18 46.724 0.177 7.41 2.69 10.9
3/24/2021 8:00:00 AM 8.17 46.706 0.178 7.42 2.61 10.94
3/24/2021 8:15:00 AM 8.16 46.688 0.178 7.43 2.62 11
3/24/2021 8:30:00 AM 8.16 46.688 0.176 7.44 2.7 11.07
3/24/2021 8:45:00 AM 8.15 46.67 0.175 7.46 2.77 11.15
3/24/2021 9:00:00 AM 8.15 46.67 0.173 7.47 2.66 11.23
3/24/2021 9:15:00 AM 8.14 46.652 0.171 7.49 2.74 11.31
3/24/2021 9:30:00 AM 8.14 46.652 0.17 7.51 2.73 11.42
3/24/2021 9:45:00 AM 8.15 46.67 0.17 7.54 2.88 11.54
3/24/2021 10:00:00 AM 8.16 46.688 0.171 7.58 3.03 11.66
3/24/2021 10:15:00 AM 8.17 46.706 0.172 7.61 2.92 11.75
3/24/2021 10:30:00 AM 8.19 46.742 0.173 7.64 3.11 11.83
3/24/2021 10:45:00 AM 8.21 46.778 0.173 7.68 2.89 11.93
3/24/2021 11:00:00 AM 8.23 46.814 0.172 7.74 2.98 12.12
3/24/2021 11:15:00 AM 8.26 46.868 0.171 7.81 2.92 12.25
3/24/2021 11:30:00 AM 8.28 46.904 0.169 7.87 2.84 12.34
3/24/2021 11:45:00 AM 8.3 46.94 0.168 7.95 2.83 12.45
3/24/2021 12:00:00 PM 8.33 46.994 0.167 8.03 2.82 12.56
3/24/2021 12:15:00 PM 8.37 47.066 0.167 8.11 2.95 12.68
3/24/2021 12:30:00 PM 8.42 47.156 0.169 8.21 2.83 12.8
3/24/2021 12:45:00 PM 8.49 47.282 0.171 8.32 2.81 12.92
3/24/2021 1:00:00 PM 8.57 47.426 0.172 8.43 3.07 13.06
3/24/2021 1:15:00 PM 8.63 47.534 0.172 8.53 3.12 13.17
3/24/2021 1:30:00 PM 8.68 47.624 0.172 8.59 3.08 13.21
3/24/2021 1:45:00 PM 8.71 47.678 0.173 8.62 3.24 13.14
3/24/2021 2:00:00 PM 8.76 47.768 0.173 8.65 3.42 13.14
3/24/2021 2:15:00 PM 8.8 47.84 0.174 8.69 3.78 13.17
3/24/2021 2:30:00 PM 8.86 47.948 0.176 8.75 4 13.24
3/24/2021 2:45:00 PM 8.92 48.056 0.179 8.8 3.86 13.3
3/24/2021 3:00:00 PM 8.97 48.146 0.183 8.82 3.59 13.3
3/24/2021 3:15:00 PM 8.99 48.182 0.188 8.78 3.1 13.18
3/24/2021 3:30:00 PM 9.04 48.272 0.192 8.78 2.94 13.14
3/24/2021 3:45:00 PM 9.08 48.344 0.194 8.8 2.9 13.15
3/24/2021 4:00:00 PM 9.12 48.416 0.195 8.8 2.81 13.06
3/24/2021 4:15:00 PM 9.16 48.488 0.196 8.79 2.79 12.98
3/24/2021 4:30:00 PM 9.22 48.596 0.196 8.83 2.82 13.05
3/24/2021 4:45:00 PM 9.29 48.722 0.196 8.89 2.82 13.13
3/24/2021 5:00:00 PM 9.33 48.794 0.195 8.91 2.88 13.11
3/24/2021 5:15:00 PM 9.36 48.848 0.194 8.91 2.88 13.04
3/24/2021 5:30:00 PM 9.38 48.884 0.194 8.88 2.83 12.92
3/24/2021 5:45:00 PM 9.41 48.938 0.194 8.88 2.85 12.91
3/24/2021 6:00:00 PM 9.44 48.992 0.196 8.87 3.03 12.89
3/24/2021 6:15:00 PM 9.45 49.01 0.199 8.8 3.19 12.66
3/24/2021 6:30:00 PM 9.45 49.01 0.2 8.71 3.12 12.49
3/24/2021 6:45:00 PM 9.44 48.992 0.2 8.62 3.01 12.32
3/24/2021 7:00:00 PM 9.42 48.956 0.2 8.51 3.07 12.11
3/24/2021 7:15:00 PM 9.41 48.938 0.2 8.39 2.97 11.91
3/24/2021 7:30:00 PM 9.39 48.902 0.199 8.26 2.87 11.76
3/24/2021 7:45:00 PM 9.37 48.866 0.198 8.14 2.91 11.62
3/24/2021 8:00:00 PM 9.36 48.848 0.196 8.03 2.93 11.48
3/24/2021 8:15:00 PM 9.35 48.83 0.195 7.94 2.85 11.38
3/24/2021 8:30:00 PM 9.34 48.812 0.194 7.87 2.89 11.29
3/24/2021 8:45:00 PM 9.33 48.794 0.195 7.81 2.88 11.2
3/24/2021 9:00:00 PM 9.33 48.794 0.196 7.75 2.94 11.11
3/24/2021 9:15:00 PM 9.32 48.776 0.195 7.7 2.98 11.03
3/24/2021 9:30:00 PM 9.32 48.776 0.194 7.67 3.05 10.97
3/24/2021 9:45:00 PM 9.3 48.74 0.192 7.64 2.95 10.92
3/24/2021 10:00:00 PM 9.29 48.722 0.19 7.62 2.93 10.88
3/24/2021 10:15:00 PM 9.28 48.704 0.189 7.59 3 10.85
3/24/2021 10:30:00 PM 9.27 48.686 0.187 7.58 2.97 10.82
3/24/2021 10:45:00 PM 9.25 48.65 0.186 7.56 3.04 10.8
3/24/2021 11:00:00 PM 9.24 48.632 0.185 7.54 2.81 10.78
3/24/2021 11:15:00 PM 9.22 48.596 0.185 7.53 2.88 10.75
3/24/2021 11:30:00 PM 9.21 48.578 0.187 7.51 2.83 10.73
3/24/2021 11:45:00 PM 9.2 48.56 0.188 7.5 2.87 10.71
3/25/2021 12:00:00 AM 9.18 48.524 0.189 7.49 2.93 10.69
3/25/2021 12:15:00 AM 9.17 48.506 0.188 7.48 2.83 10.68
3/25/2021 12:30:00 AM 9.15 48.47 0.187 7.47 2.85 10.68
3/25/2021 12:45:00 AM 9.14 48.452 0.186 7.46 2.79 10.67
3/25/2021 1:00:00 AM 9.12 48.416 0.185 7.45 2.84 10.67
3/25/2021 1:15:00 AM 9.1 48.38 0.184 7.44 2.88 10.67
3/25/2021 1:30:00 AM 9.08 48.344 0.183 7.44 2.81 10.67
3/25/2021 1:45:00 AM 9.06 48.308 0.183 7.43 2.84 10.66
3/25/2021 2:00:00 AM 9.05 48.29 0.183 7.42 2.81 10.66
3/25/2021 2:15:00 AM 9.03 48.254 0.185 7.42 2.76 10.65
3/25/2021 2:30:00 AM 9.02 48.236 0.187 7.41 2.76 10.65
3/25/2021 2:45:00 AM 9 48.2 0.187 7.41 2.76 10.64
3/25/2021 3:00:00 AM 8.99 48.182 0.187 7.41 2.8 10.64
3/25/2021 3:15:00 AM 8.97 48.146 0.187 7.4 2.84 10.64
3/25/2021 3:30:00 AM 8.97 48.146 0.186 7.4 2.86 10.65
3/25/2021 3:45:00 AM 8.96 48.128 0.185 7.41 2.71 10.65
3/25/2021 4:00:00 AM 8.95 48.11 0.184 7.41 2.78 10.66
3/25/2021 4:15:00 AM 8.94 48.092 0.184 7.41 2.87 10.66
3/25/2021 4:30:00 AM 8.92 48.056 0.183 7.41 2.85 10.67
3/25/2021 4:45:00 AM 8.91 48.038 0.184 7.41 2.94 10.67
3/25/2021 5:00:00 AM 8.9 48.02 0.186 7.41 2.87 10.66
3/25/2021 5:15:00 AM 8.89 48.002 0.188 7.41 2.83 10.65
3/25/2021 5:30:00 AM 8.88 47.984 0.188 7.41 2.68 10.65
3/25/2021 5:45:00 AM 8.88 47.984 0.188 7.41 2.76 10.66
3/25/2021 6:00:00 AM 8.87 47.966 0.188 7.41 2.65 10.66
3/25/2021 6:15:00 AM 8.87 47.966 0.187 7.42 2.79 10.67
3/25/2021 6:30:00 AM 8.87 47.966 0.186 7.42 2.6 10.68
3/25/2021 6:45:00 AM 8.86 47.948 0.185 7.42 2.78 10.68
3/25/2021 7:00:00 AM 8.86 47.948 0.184 7.42 2.71 10.69
3/25/2021 7:15:00 AM 8.85 47.93 0.184 7.42 2.71 10.7
3/25/2021 7:30:00 AM 8.85 47.93 0.184 7.42 2.83 10.72
3/25/2021 7:45:00 AM 8.85 47.93 0.186 7.43 2.61 10.76
3/25/2021 8:00:00 AM 8.85 47.93 0.187 7.45 2.61 10.82
3/25/2021 8:15:00 AM 8.85 47.93 0.188 7.46 2.54 10.88
3/25/2021 8:30:00 AM 8.86 47.948 0.187 7.48 2.6 10.98
3/25/2021 8:45:00 AM 8.88 47.984 0.187 7.51 2.56 11.11
3/25/2021 9:00:00 AM 8.89 48.002 0.185 7.54 2.62 11.26
3/25/2021 9:15:00 AM 8.91 48.038 0.184 7.58 2.56 11.41
3/25/2021 9:30:00 AM 8.94 48.092 0.182 7.64 2.54 11.58
3/25/2021 9:45:00 AM 8.97 48.146 0.181 7.7 2.41 11.81
3/25/2021 10:00:00 AM 9.01 48.218 0.18 7.78 2.5 11.99
3/25/2021 10:15:00 AM 9.06 48.308 0.18 7.89 2.41 12.23
3/25/2021 10:30:00 AM 9.14 48.452 0.181 8.03 2.4 12.5
3/25/2021 10:45:00 AM 9.24 48.632 0.182 8.19 2.39 12.75
3/25/2021 11:00:00 AM 9.37 48.866 0.182 8.36 2.42 13.02
3/25/2021 11:15:00 AM 9.56 49.208 0.181 8.52 2.45 13.19
3/25/2021 11:30:00 AM 9.73 49.514 0.18 8.64 2.46 13.36
3/25/2021 11:45:00 AM 9.85 49.73 0.179 8.75 2.43 13.48
3/25/2021 12:00:00 PM 9.97 49.946 0.178 8.84 2.46 13.57
3/25/2021 12:15:00 PM 10.07 50.126 0.176 8.93 2.5 13.66
3/25/2021 12:30:00 PM 10.18 50.324 0.176 9 2.4 13.78
3/25/2021 12:45:00 PM 10.33 50.594 0.175 9.07 2.54 13.86
3/25/2021 1:00:00 PM 10.47 50.846 0.176 9.12 2.52 13.9
3/25/2021 1:15:00 PM 10.61 51.098 0.177 9.17 2.47 13.97
3/25/2021 1:30:00 PM 10.78 51.404 0.178 9.21 2.75 14.03
3/25/2021 1:45:00 PM 10.95 51.71 0.178 9.25 2.54 14.1
3/25/2021 2:00:00 PM 11.12 52.016 0.178 9.3 2.73 14.13
3/25/2021 2:15:00 PM 11.25 52.25 0.177 9.33 2.89 14.14
3/25/2021 2:30:00 PM 11.37 52.466 0.176 9.37 3.03 14.12
3/25/2021 2:45:00 PM 11.45 52.61 0.175 9.4 2.87 14.08
3/25/2021 3:00:00 PM 11.54 52.772 0.174 9.42 2.7 14.05
3/25/2021 3:15:00 PM 11.64 52.952 0.173 9.44 2.74 14.01
3/25/2021 3:30:00 PM 11.74 53.132 0.173 9.46 2.81 13.98
3/25/2021 3:45:00 PM 11.83 53.294 0.174 9.48 2.85 13.95
3/25/2021 4:00:00 PM 11.9 53.42 0.176 9.49 2.71 13.91
3/25/2021 4:15:00 PM 11.95 53.51 0.177 9.49 2.63 13.82
3/25/2021 4:30:00 PM 11.98 53.564 0.178 9.48 2.67 13.71
3/25/2021 4:45:00 PM 12.02 53.636 0.178 9.48 2.73 13.55
3/25/2021 5:00:00 PM 12.04 53.672 0.178 9.48 2.64 13.4
3/25/2021 5:15:00 PM 12.07 53.726 0.177 9.47 2.65 13.26
3/25/2021 5:30:00 PM 12.08 53.744 0.177 9.47 2.73 13.13
3/25/2021 5:45:00 PM 12.11 53.798 0.175 9.45 2.77 12.95
3/25/2021 6:00:00 PM 12.12 53.816 0.174 9.41 2.71 12.6
3/25/2021 6:15:00 PM 12.13 53.834 0.173 9.37 2.63 12.34
3/25/2021 6:30:00 PM 12.13 53.834 0.173 9.31 2.75 12
3/25/2021 6:45:00 PM 12.13 53.834 0.173 9.24 2.65 11.81
3/25/2021 7:00:00 PM 12.13 53.834 0.173 9.18 2.59 11.6
3/25/2021 7:15:00 PM 12.12 53.816 0.173 9.1 2.66 11.34
3/25/2021 7:30:00 PM 12.11 53.798 0.173 9.02 2.62 11.13
3/25/2021 7:45:00 PM 12.1 53.78 0.172 8.94 2.68 10.91
3/25/2021 8:00:00 PM 12.08 53.744 0.172 8.84 2.64 10.75
3/25/2021 8:15:00 PM 12.06 53.708 0.172 8.74 2.76 10.62
3/25/2021 8:30:00 PM 12.03 53.654 0.172 8.61 2.74 10.51
3/25/2021 8:45:00 PM 12.01 53.618 0.174 8.47 2.96 10.39
3/25/2021 9:00:00 PM 11.99 53.582 0.176 8.31 2.82 10.29
3/25/2021 9:15:00 PM 11.96 53.528 0.18 8.14 2.85 10.22
3/25/2021 9:30:00 PM 11.93 53.474 0.183 8.01 2.85 10.16
3/25/2021 9:45:00 PM 11.9 53.42 0.186 7.91 2.76 10.11
3/25/2021 10:00:00 PM 11.88 53.384 0.188 7.84 2.8 10.06
3/25/2021 10:15:00 PM 11.86 53.348 0.188 7.79 2.83 10.01
3/25/2021 10:30:00 PM 11.84 53.312 0.188 7.76 2.81 9.97
3/25/2021 10:45:00 PM 11.82 53.276 0.187 7.72 2.88 9.94
3/25/2021 11:00:00 PM 11.79 53.222 0.186 7.69 2.84 9.92
3/25/2021 11:15:00 PM 11.75 53.15 0.186 7.66 2.76 9.9
3/25/2021 11:30:00 PM 11.72 53.096 0.187 7.64 3.12 9.88
3/25/2021 11:45:00 PM 11.68 53.024 0.188 7.62 3.04 9.86
3/26/2021 12:00:00 AM 11.64 52.952 0.191 7.6 2.97 9.84
3/26/2021 12:15:00 AM 11.6 52.88 0.193 7.58 2.78 9.83
3/26/2021 12:30:00 AM 11.56 52.808 0.194 7.57 2.98 9.82
3/26/2021 12:45:00 AM 11.52 52.736 0.196 7.56 2.93 9.82
3/26/2021 1:00:00 AM 11.48 52.664 0.197 7.54 2.79 9.82
3/26/2021 1:15:00 AM 11.43 52.574 0.198 7.53 2.72 9.82
3/26/2021 1:30:00 AM 11.39 52.502 0.199 7.52 2.83 9.82
3/26/2021 1:45:00 AM 11.33 52.394 0.201 7.51 2.88 9.83
3/26/2021 2:00:00 AM 11.28 52.304 0.202 7.5 2.83 9.83
3/26/2021 2:15:00 AM 11.22 52.196 0.203 7.5 2.82 9.84
3/26/2021 2:30:00 AM 11.16 52.088 0.205 7.49 2.77 9.84
3/26/2021 2:45:00 AM 11.12 52.016 0.207 7.48 2.8 9.84
3/26/2021 3:00:00 AM 11.07 51.926 0.209 7.47 2.87 9.84
3/26/2021 3:15:00 AM 11.02 51.836 0.209 7.47 2.84 9.84
3/26/2021 3:30:00 AM 10.98 51.764 0.209 7.46 2.78 9.84
3/26/2021 3:45:00 AM 10.93 51.674 0.209 7.46 2.89 9.86
3/26/2021 4:00:00 AM 10.9 51.62 0.207 7.46 2.87 9.87
3/26/2021 4:15:00 AM 10.87 51.566 0.206 7.45 2.94 9.88
3/26/2021 4:30:00 AM 10.82 51.476 0.205 7.45 2.86 9.89
3/26/2021 4:45:00 AM 10.77 51.386 0.203 7.45 2.84 9.9
3/26/2021 5:00:00 AM 10.74 51.332 0.202 7.44 3.1 9.91
3/26/2021 5:15:00 AM 10.71 51.278 0.202 7.44 2.91 9.91
3/26/2021 5:30:00 AM 10.68 51.224 0.203 7.43 2.92 9.91
3/26/2021 5:45:00 AM 10.65 51.17 0.203 7.43 2.93 9.91
3/26/2021 6:00:00 AM 10.62 51.116 0.203 7.43 2.86 9.91
3/26/2021 6:15:00 AM 10.6 51.08 0.202 7.43 2.85 9.92
3/26/2021 6:30:00 AM 10.58 51.044 0.201 7.42 2.93 9.93
3/26/2021 6:45:00 AM 10.55 50.99 0.199 7.42 2.82 9.95
3/26/2021 7:00:00 AM 10.53 50.954 0.197 7.42 2.77 9.96
3/26/2021 7:15:00 AM 10.49 50.882 0.195 7.42 2.85 9.98
3/26/2021 7:30:00 AM 10.46 50.828 0.194 7.42 2.79 10.03
3/26/2021 7:45:00 AM 10.43 50.774 0.194 7.44 2.89 10.12
3/26/2021 8:00:00 AM 10.39 50.702 0.194 7.46 2.69 10.22
3/26/2021 8:15:00 AM 10.36 50.648 0.195 7.47 2.74 10.31
3/26/2021 8:30:00 AM 10.35 50.63 0.196 7.5 2.67 10.45
3/26/2021 8:45:00 AM 10.38 50.684 0.196 7.55 2.74 10.66
3/26/2021 9:00:00 AM 10.43 50.774 0.195 7.61 2.66 10.87
3/26/2021 9:15:00 AM 10.47 50.846 0.193 7.67 2.61 11.06
3/26/2021 9:30:00 AM 10.52 50.936 0.192 7.74 2.58 11.26
3/26/2021 9:45:00 AM 10.57 51.026 0.191 7.81 2.8 11.4
3/26/2021 10:00:00 AM 10.65 51.17 0.191 7.89 2.71 11.61
3/26/2021 10:15:00 AM 10.72 51.296 0.191 7.98 2.59 11.77
3/26/2021 10:30:00 AM 10.81 51.458 0.191 8.07 2.62 11.9
3/26/2021 10:45:00 AM 10.86 51.548 0.192 8.16 2.62 12.02
3/26/2021 11:00:00 AM 10.87 51.566 0.193 8.23 2.59 12.08
3/26/2021 11:15:00 AM 11.04 51.872 0.192 8.36 2.68 12.3
3/26/2021 11:30:00 AM 11.14 52.052 0.192 8.46 2.56 12.39
3/26/2021 11:45:00 AM 11.21 52.178 0.191 8.56 2.58 12.51
3/26/2021 12:00:00 PM 11.29 52.322 0.19 8.64 2.68 12.62
3/26/2021 12:15:00 PM 11.32 52.376 0.189 8.68 2.95 12.61
3/26/2021 12:30:00 PM 11.42 52.556 0.189 8.75 2.87 12.7
3/26/2021 12:45:00 PM 11.51 52.718 0.189 8.8 2.66 12.74
3/26/2021 1:00:00 PM 11.52 52.736 0.19 8.84 2.7 12.76
3/26/2021 1:15:00 PM 11.58 52.844 0.193 8.89 2.7 12.81
3/26/2021 1:30:00 PM 11.57 52.826 0.196 8.92 2.54 12.82
3/26/2021 1:45:00 PM 11.57 52.826 0.199 8.95 2.63 12.82
3/26/2021 2:00:00 PM 11.55 52.79 0.2 8.96 2.66 12.77
3/26/2021 2:15:00 PM 11.58 52.844 0.2 8.99 2.54 12.8
3/26/2021 2:30:00 PM 11.62 52.916 0.199 9.02 2.76 12.79
3/26/2021 2:45:00 PM 11.69 53.042 0.197 9.06 2.7 12.82
3/26/2021 3:00:00 PM 11.72 53.096 0.195 9.07 2.73 12.74
3/26/2021 3:15:00 PM 11.76 53.168 0.193 9.08 2.73 12.73
3/26/2021 3:30:00 PM 11.82 53.276 0.192 9.11 2.69 12.8
3/26/2021 3:45:00 PM 11.9 53.42 0.192 9.14 2.69 12.86
3/26/2021 4:00:00 PM 12.03 53.654 0.193 9.16 2.66 12.92
3/26/2021 4:15:00 PM 12.16 53.888 0.194 9.18 2.65 12.98
3/26/2021 4:30:00 PM 12.19 53.942 0.194 9.18 2.74 12.92
3/26/2021 4:45:00 PM 12.21 53.978 0.195 9.19 2.76 12.9
3/26/2021 5:00:00 PM 12.26 54.068 0.195 9.2 2.84 12.89
3/26/2021 5:15:00 PM 12.28 54.104 0.195 9.21 2.99 12.82
3/26/2021 5:30:00 PM 12.31 54.158 0.193 9.22 2.83 12.8
3/26/2021 5:45:00 PM 12.33 54.194 0.192 9.22 2.83 12.69
3/26/2021 6:00:00 PM 12.32 54.176 0.192 9.22 2.83 12.56
3/26/2021 6:15:00 PM 12.29 54.122 0.192 9.2 2.73 12.36
3/26/2021 6:30:00 PM 12.27 54.086 0.193 9.17 2.86 12.15
3/26/2021 6:45:00 PM 12.25 54.05 0.194 9.12 2.86 11.9
3/26/2021 7:00:00 PM 12.24 54.032 0.196 9.06 2.74 11.72
3/26/2021 7:15:00 PM 12.25 54.05 0.198 9.01 2.82 11.51
3/26/2021 7:30:00 PM 12.27 54.086 0.2 8.95 2.88 11.3
3/26/2021 7:45:00 PM 12.3 54.14 0.201 8.89 2.89 11.13
3/26/2021 8:00:00 PM 12.33 54.194 0.2 8.83 2.94 10.94
3/26/2021 8:15:00 PM 12.34 54.212 0.199 8.75 2.93 10.75
3/26/2021 8:30:00 PM 12.33 54.194 0.198 8.67 3.4 10.61
3/26/2021 8:45:00 PM 12.3 54.14 0.197 8.57 3.09 10.5
3/26/2021 9:00:00 PM 12.26 54.068 0.196 8.45 2.97 10.38
3/26/2021 9:15:00 PM 12.21 53.978 0.196 8.3 2.97 10.26
3/26/2021 9:30:00 PM 12.14 53.852 0.198 8.15 3.02 10.17
3/26/2021 9:45:00 PM 12.08 53.744 0.2 8.01 3.27 10.11
3/26/2021 10:00:00 PM 12.01 53.618 0.202 7.91 3.13 10.05
3/26/2021 10:15:00 PM 11.95 53.51 0.204 7.84 3.05 10
3/26/2021 10:30:00 PM 11.88 53.384 0.206 7.78 3.03 9.96
3/26/2021 10:45:00 PM 11.79 53.222 0.206 7.74 3.03 9.93
3/26/2021 11:00:00 PM 11.7 53.06 0.206 7.71 2.96 9.91
3/26/2021 11:15:00 PM 11.61 52.898 0.205 7.68 3.18 9.91
3/26/2021 11:30:00 PM 11.52 52.736 0.204 7.66 3 9.92
3/26/2021 11:45:00 PM 11.43 52.574 0.204 7.64 3.07 9.92
3/27/2021 12:00:00 AM 11.34 52.412 0.204 7.62 3.1 9.92
3/27/2021 12:15:00 AM 11.24 52.232 0.205 7.6 3.14 9.93
3/27/2021 12:30:00 AM 11.13 52.034 0.206 7.59 3.25 9.94
3/27/2021 12:45:00 AM 11.02 51.836 0.207 7.57 3.06 9.95
3/27/2021 1:00:00 AM 10.91 51.638 0.208 7.56 3.04 9.96
3/27/2021 1:15:00 AM 10.81 51.458 0.208 7.55 3.03 9.97
3/27/2021 1:30:00 AM 10.73 51.314 0.207 7.54 3.08 9.99
3/27/2021 1:45:00 AM 10.65 51.17 0.206 7.53 3.17 10.01
3/27/2021 2:00:00 AM 10.57 51.026 0.205 7.52 3.1 10.03
3/27/2021 2:15:00 AM 10.49 50.882 0.203 7.52 3.02 10.04
3/27/2021 2:30:00 AM 10.39 50.702 0.202 7.51 2.9 10.07
3/27/2021 2:45:00 AM 10.32 50.576 0.202 7.51 2.95 10.08
3/27/2021 3:00:00 AM 10.23 50.414 0.203 7.5 2.89 10.1
3/27/2021 3:15:00 AM 10.17 50.306 0.204 7.49 2.99 10.11
3/27/2021 3:30:00 AM 10.1 50.18 0.206 7.49 3.02 10.12
3/27/2021 3:45:00 AM 10.04 50.072 0.206 7.49 2.88 10.13
3/27/2021 4:00:00 AM 9.97 49.946 0.207 7.48 3.01 10.14
3/27/2021 4:15:00 AM 9.92 49.856 0.206 7.48 2.85 10.16
3/27/2021 4:30:00 AM 9.87 49.766 0.205 7.48 2.95 10.18
3/27/2021 4:45:00 AM 9.81 49.658 0.204 7.48 3.27 10.2
3/27/2021 5:00:00 AM 9.74 49.532 0.202 7.47 2.88 10.23
3/27/2021 5:15:00 AM 9.69 49.442 0.202 7.47 2.79 10.26
3/27/2021 5:30:00 AM 9.65 49.37 0.202 7.47 2.82 10.27
3/27/2021 5:45:00 AM 9.58 49.244 0.203 7.47 2.88 10.29
3/27/2021 6:00:00 AM 9.52 49.136 0.204 7.46 2.84 10.3
3/27/2021 6:15:00 AM 9.45 49.01 0.205 7.46 2.74 10.31
3/27/2021 6:30:00 AM 9.39 48.902 0.206 7.46 2.82 10.33
3/27/2021 6:45:00 AM 9.32 48.776 0.205 7.46 2.79 10.35
3/27/2021 7:00:00 AM 9.27 48.686 0.205 7.46 2.77 10.38
3/27/2021 7:15:00 AM 9.2 48.56 0.203 7.46 2.82 10.42
3/27/2021 7:30:00 AM 9.14 48.452 0.202 7.47 2.71 10.52
3/27/2021 7:45:00 AM 9.09 48.362 0.201 7.5 2.8 10.67
3/27/2021 8:00:00 AM 9.06 48.308 0.2 7.53 2.7 10.85
3/27/2021 8:15:00 AM 9.03 48.254 0.2 7.57 2.59 11.06
3/27/2021 8:30:00 AM 9 48.2 0.201 7.6 2.82 11.22
3/27/2021 8:45:00 AM 8.99 48.182 0.202 7.64 2.69 11.4
3/27/2021 9:00:00 AM 9.01 48.218 0.203 7.7 2.65 11.63
3/27/2021 9:15:00 AM 9.05 48.29 0.203 7.77 2.7 11.86
3/27/2021 9:30:00 AM 9.1 48.38 0.202 7.85 2.54 12.06
3/27/2021 9:45:00 AM 9.17 48.506 0.201 7.95 2.58 12.31
3/27/2021 10:00:00 AM 9.27 48.686 0.199 8.06 2.54 12.49
3/27/2021 10:15:00 AM 9.38 48.884 0.198 8.18 2.54 12.7
3/27/2021 10:30:00 AM 9.51 49.118 0.196 8.31 2.52 12.91
3/27/2021 10:45:00 AM 9.63 49.334 0.195 8.42 2.43 13.03
3/27/2021 11:00:00 AM 9.79 49.622 0.195 8.53 2.51 13.19
3/27/2021 11:15:00 AM 9.93 49.874 0.195 8.62 2.53 13.33
3/27/2021 11:30:00 AM 10.09 50.162 0.196 8.7 2.56 13.42
3/27/2021 11:45:00 AM 10.25 50.45 0.197 8.77 2.49 13.5
3/27/2021 12:00:00 PM 10.42 50.756 0.197 8.83 2.47 13.58
3/27/2021 12:15:00 PM 10.57 51.026 0.196 8.9 2.6 13.67
3/27/2021 12:30:00 PM 10.72 51.296 0.195 8.96 2.49 13.73
3/27/2021 12:45:00 PM 10.89 51.602 0.193 9.03 2.53 13.81
3/27/2021 1:00:00 PM 11.04 51.872 0.192 9.09 2.49 13.87
3/27/2021 1:15:00 PM 11.21 52.178 0.191 9.14 2.52 13.94
3/27/2021 1:30:00 PM 11.39 52.502 0.19 9.19 2.5 13.98
3/27/2021 1:45:00 PM 11.55 52.79 0.19 9.23 2.52 13.99
3/27/2021 2:00:00 PM 11.72 53.096 0.191 9.27 2.52 13.99
3/27/2021 2:15:00 PM 11.85 53.33 0.191 9.3 2.5 14
3/27/2021 2:30:00 PM 11.96 53.528 0.192 9.33 2.51 13.99
3/27/2021 2:45:00 PM 12.05 53.69 0.192 9.36 2.5 14
3/27/2021 3:00:00 PM 12.11 53.798 0.192 9.38 2.55 13.95
3/27/2021 3:15:00 PM 12.17 53.906 0.191 9.4 2.75 13.88
3/27/2021 3:30:00 PM 12.21 53.978 0.19 9.42 2.55 13.81
3/27/2021 3:45:00 PM 12.23 54.014 0.189 9.43 2.56 13.7
3/27/2021 4:00:00 PM 12.24 54.032 0.189 9.43 2.71 13.62
3/27/2021 4:15:00 PM 12.26 54.068 0.189 9.44 2.59 13.56
3/27/2021 4:30:00 PM 12.26 54.068 0.19 9.44 2.56 13.45
3/27/2021 4:45:00 PM 12.27 54.086 0.191 9.43 2.65 13.35
3/27/2021 5:00:00 PM 12.28 54.104 0.192 9.43 2.56 13.24
3/27/2021 5:15:00 PM 12.28 54.104 0.193 9.42 2.52 13.12
3/27/2021 5:30:00 PM 12.28 54.104 0.193 9.41 2.54 12.98
3/27/2021 5:45:00 PM 12.28 54.104 0.193 9.4 2.56 12.89
3/27/2021 6:00:00 PM 12.28 54.104 0.193 9.38 2.67 12.74
3/27/2021 6:15:00 PM 12.28 54.104 0.192 9.37 2.56 12.56
3/27/2021 6:30:00 PM 12.28 54.104 0.192 9.34 2.61 12.39
3/27/2021 6:45:00 PM 12.28 54.104 0.192 9.32 2.72 12.23
3/27/2021 7:00:00 PM 12.27 54.086 0.192 9.28 2.61 11.95
3/27/2021 7:15:00 PM 12.24 54.032 0.193 9.22 2.59 11.69
3/27/2021 7:30:00 PM 12.23 54.014 0.194 9.15 2.58 11.42
3/27/2021 7:45:00 PM 12.21 53.978 0.196 9.07 2.58 11.19
3/27/2021 8:00:00 PM 12.18 53.924 0.199 8.98 2.64 10.98
3/27/2021 8:15:00 PM 12.16 53.888 0.201 8.88 2.66 10.77
3/27/2021 8:30:00 PM 12.13 53.834 0.202 8.79 2.76 10.64
3/27/2021 8:45:00 PM 12.1 53.78 0.203 8.7 2.87 10.52
3/27/2021 9:00:00 PM 12.06 53.708 0.203 8.59 3.55 10.39
3/27/2021 9:15:00 PM 12.02 53.636 0.203 8.47 2.84 10.28
3/27/2021 9:30:00 PM 11.97 53.546 0.202 8.33 2.79 10.18
3/27/2021 9:45:00 PM 11.92 53.456 0.202 8.19 2.76 10.11
3/27/2021 10:00:00 PM 11.86 53.348 0.202 8.06 2.9 10.03
3/27/2021 10:15:00 PM 11.79 53.222 0.204 7.95 2.79 9.97
3/27/2021 10:30:00 PM 11.72 53.096 0.206 7.86 2.77 9.91
3/27/2021 10:45:00 PM 11.65 52.97 0.208 7.8 2.68 9.86
3/27/2021 11:00:00 PM 11.57 52.826 0.209 7.74 2.82 9.84
3/27/2021 11:15:00 PM 11.5 52.7 0.21 7.7 2.73 9.82
3/27/2021 11:30:00 PM 11.42 52.556 0.21 7.67 2.77 9.82
3/27/2021 11:45:00 PM 11.33 52.394 0.209 7.64 2.85 9.81
3/28/2021 12:00:00 AM 11.25 52.25 0.207 7.62 2.87 9.82
3/28/2021 12:15:00 AM 11.16 52.088 0.206 7.6 3.14 9.82
3/28/2021 12:30:00 AM 11.06 51.908 0.205 7.58 2.76 9.84
3/28/2021 12:45:00 AM 10.97 51.746 0.205 7.57 2.94 9.85
3/28/2021 1:00:00 AM 10.88 51.584 0.205 7.56 2.96 9.86
3/28/2021 1:15:00 AM 10.78 51.404 0.206 7.55 2.84 9.87
3/28/2021 1:30:00 AM 10.69 51.242 0.208 7.53 2.93 9.87
3/28/2021 1:45:00 AM 10.6 51.08 0.209 7.53 2.81 9.88
3/28/2021 2:00:00 AM 10.51 50.918 0.21 7.52 2.8 9.89
3/28/2021 2:15:00 AM 10.42 50.756 0.209 7.51 2.85 9.91
3/28/2021 2:30:00 AM 10.34 50.612 0.208 7.51 2.86 9.93
3/28/2021 2:45:00 AM 10.25 50.45 0.206 7.5 2.94 9.96
3/28/2021 3:00:00 AM 10.17 50.306 0.205 7.49 2.81 9.98
3/28/2021 3:15:00 AM 10.09 50.162 0.205 7.49 2.87 9.99
3/28/2021 3:30:00 AM 10.02 50.036 0.205 7.48 2.79 10.01
3/28/2021 3:45:00 AM 9.95 49.91 0.205 7.48 2.87 10.02
3/28/2021 4:00:00 AM 9.88 49.784 0.207 7.48 2.83 10.03
3/28/2021 4:15:00 AM 9.82 49.676 0.209 7.47 2.74 10.03
3/28/2021 4:30:00 AM 9.77 49.586 0.21 7.47 2.74 10.04
3/28/2021 4:45:00 AM 9.71 49.478 0.21 7.47 2.72 10.06
3/28/2021 5:00:00 AM 9.66 49.388 0.21 7.47 2.76 10.09
3/28/2021 5:15:00 AM 9.61 49.298 0.209 7.47 2.97 10.1
3/28/2021 5:30:00 AM 9.56 49.208 0.207 7.47 2.72 10.13
3/28/2021 5:45:00 AM 9.52 49.136 0.206 7.46 2.82 10.15
3/28/2021 6:00:00 AM 9.48 49.064 0.206 7.46 2.67 10.16
3/28/2021 6:15:00 AM 9.44 48.992 0.206 7.46 2.69 10.18
3/28/2021 6:30:00 AM 9.39 48.902 0.206 7.46 2.7 10.2
3/28/2021 6:45:00 AM 9.35 48.83 0.207 7.46 2.67 10.21
3/28/2021 7:00:00 AM 9.32 48.776 0.208 7.46 2.67 10.21
3/28/2021 7:15:00 AM 9.3 48.74 0.209 7.46 2.81 10.22
3/28/2021 7:30:00 AM 9.27 48.686 0.209 7.47 2.67 10.24
3/28/2021 7:45:00 AM 9.25 48.65 0.208 7.47 2.68 10.27
3/28/2021 8:00:00 AM 9.22 48.596 0.206 7.47 2.71 10.3
3/28/2021 8:15:00 AM 9.2 48.56 0.205 7.48 2.68 10.35
3/28/2021 8:30:00 AM 9.18 48.524 0.204 7.48 2.63 10.39
3/28/2021 8:45:00 AM 9.16 48.488 0.203 7.5 2.59 10.47
3/28/2021 9:00:00 AM 9.15 48.47 0.203 7.51 2.71 10.54
3/28/2021 9:15:00 AM 9.14 48.452 0.203 7.52 2.65 10.58
3/28/2021 9:30:00 AM 9.13 48.434 0.204 7.53 2.66 10.62
3/28/2021 9:45:00 AM 9.13 48.434 0.205 7.54 2.77 10.68
3/28/2021 10:00:00 AM 9.13 48.434 0.205 7.55 2.7 10.75
3/28/2021 10:15:00 AM 9.14 48.452 0.205 7.58 2.68 10.88
3/28/2021 10:30:00 AM 9.15 48.47 0.204 7.61 2.97 11
3/28/2021 10:45:00 AM 9.16 48.488 0.202 7.64 2.69 11.13
3/28/2021 11:00:00 AM 9.18 48.524 0.201 7.68 2.79 11.26
3/28/2021 11:15:00 AM 9.21 48.578 0.2 7.73 2.74 11.44
3/28/2021 11:30:00 AM 9.24 48.632 0.2 7.77 2.81 11.57
3/28/2021 11:45:00 AM 9.27 48.686 0.2 7.83 2.83 11.7
3/28/2021 12:00:00 PM 9.31 48.758 0.201 7.89 2.75 11.81
3/28/2021 12:15:00 PM 9.34 48.812 0.202 7.94 2.86 11.9
3/28/2021 12:30:00 PM 9.39 48.902 0.201 8.01 2.76 12.03
3/28/2021 12:45:00 PM 9.45 49.01 0.2 8.12 2.9 12.25
3/28/2021 1:00:00 PM 9.56 49.208 0.199 8.26 2.9 12.45
3/28/2021 1:15:00 PM 9.64 49.352 0.198 8.38 2.84 12.6
3/28/2021 1:30:00 PM 9.65 49.37 0.198 8.36 2.92 12.38
3/28/2021 1:45:00 PM 9.67 49.406 0.199 8.34 2.82 12.29
3/28/2021 2:00:00 PM 9.71 49.478 0.201 8.36 3.12 12.29
3/28/2021 2:15:00 PM 9.8 49.64 0.203 8.42 2.93 12.39
3/28/2021 2:30:00 PM 9.9 49.82 0.204 8.48 2.93 12.42
3/28/2021 2:45:00 PM 9.94 49.892 0.205 8.5 3.01 12.35
3/28/2021 3:00:00 PM 9.95 49.91 0.205 8.44 3.01 12.15
3/28/2021 3:15:00 PM 9.99 49.982 0.205 8.45 2.82 12.17
3/28/2021 3:30:00 PM 10.05 50.09 0.206 8.52 2.92 12.26
3/28/2021 3:45:00 PM 10.08 50.144 0.207 8.52 3 12.19
3/28/2021 4:00:00 PM 10.21 50.378 0.21 8.57 2.84 12.35
3/28/2021 4:15:00 PM 10.29 50.522 0.213 8.62 3.1 12.41
3/28/2021 4:30:00 PM 10.36 50.648 0.217 8.64 3.01 12.43
3/28/2021 4:45:00 PM 10.41 50.738 0.221 8.63 3.22 12.36
3/28/2021 5:00:00 PM 10.44 50.792 0.225 8.62 3.35 12.27
3/28/2021 5:15:00 PM 10.45 50.81 0.227 8.53 3.56 11.99
3/28/2021 5:30:00 PM 10.49 50.882 0.23 8.52 4.09 11.98
3/28/2021 5:45:00 PM 10.53 50.954 0.231 8.51 4.93 11.97
3/28/2021 6:00:00 PM 10.5 50.9 0.232 8.49 5.84 11.9
3/28/2021 6:15:00 PM 10.49 50.882 0.233 8.44 5.69 11.8
3/28/2021 6:30:00 PM 10.48 50.864 0.233 8.42 5.24 11.76
3/28/2021 6:45:00 PM 10.45 50.81 0.234 8.37 6 11.65
3/28/2021 7:00:00 PM 10.4 50.72 0.235 8.31 5.02 11.54
3/28/2021 7:15:00 PM 10.35 50.63 0.236 8.25 4.82 11.42
3/28/2021 7:30:00 PM 10.31 50.558 0.235 8.18 5.05 11.31
3/28/2021 7:45:00 PM 10.27 50.486 0.233 8.11 4.92 11.18
3/28/2021 8:00:00 PM 10.25 50.45 0.231 8.04 4.76 11.05
3/28/2021 8:15:00 PM 10.19 50.342 0.229 7.98 4.87 10.95
3/28/2021 8:30:00 PM 10.12 50.216 0.228 7.92 5.9 10.87
3/28/2021 8:45:00 PM 10.06 50.108 0.228 7.86 4.94 10.79
3/28/2021 9:00:00 PM 10.01 50.018 0.23 7.81 4.97 10.71
3/28/2021 9:15:00 PM 9.94 49.892 0.234 7.76 5.02 10.64
3/28/2021 9:30:00 PM 9.89 49.802 0.238 7.73 4.99 10.57
3/28/2021 9:45:00 PM 9.83 49.694 0.24 7.7 5.21 10.53
3/28/2021 10:00:00 PM 9.79 49.622 0.24 7.68 5.25 10.49
3/28/2021 10:15:00 PM 9.73 49.514 0.24 7.66 5.21 10.48
3/28/2021 10:30:00 PM 9.68 49.424 0.239 7.65 5.64 10.47
3/28/2021 10:45:00 PM 9.62 49.316 0.239 7.63 5.1 10.47
3/28/2021 11:00:00 PM 9.56 49.208 0.24 7.62 5.09 10.45
3/28/2021 11:15:00 PM 9.49 49.082 0.242 7.6 4.91 10.44
3/28/2021 11:30:00 PM 9.42 48.956 0.244 7.59 4.88 10.42
3/28/2021 11:45:00 PM 9.34 48.812 0.247 7.58 4.97 10.4
3/29/2021 12:00:00 AM 9.26 48.668 0.247 7.57 5.16 10.39
3/29/2021 12:15:00 AM 9.18 48.524 0.247 7.56 4.89 10.39
3/29/2021 12:30:00 AM 9.11 48.398 0.245 7.55 5.04 10.41
3/29/2021 12:45:00 AM 9.05 48.29 0.244 7.55 5.09 10.42
3/29/2021 1:00:00 AM 8.97 48.146 0.244 7.54 5.08 10.44
3/29/2021 1:15:00 AM 8.9 48.02 0.243 7.54 5.16 10.45
3/29/2021 1:30:00 AM 8.82 47.876 0.242 7.53 5.4 10.47
3/29/2021 1:45:00 AM 8.74 47.732 0.241 7.53 5.27 10.49
3/29/2021 2:00:00 AM 8.66 47.588 0.241 7.52 5.62 10.51
3/29/2021 2:15:00 AM 8.57 47.426 0.241 7.52 5.57 10.53
3/29/2021 2:30:00 AM 8.49 47.282 0.243 7.51 5.63 10.54
3/29/2021 2:45:00 AM 8.4 47.12 0.244 7.51 5.67 10.56
3/29/2021 3:00:00 AM 8.3 46.94 0.244 7.51 5.48 10.59
3/29/2021 3:15:00 AM 8.22 46.796 0.243 7.5 5.65 10.61
3/29/2021 3:30:00 AM 8.15 46.67 0.241 7.5 5.44 10.63
3/29/2021 3:45:00 AM 8.07 46.526 0.24 7.5 5.49 10.67
3/29/2021 4:00:00 AM 7.99 46.382 0.239 7.5 5.23 10.7
3/29/2021 4:15:00 AM 7.91 46.238 0.237 7.5 5.18 10.72
3/29/2021 4:30:00 AM 7.83 46.094 0.235 7.5 5.24 10.75
3/29/2021 4:45:00 AM 7.74 45.932 0.234 7.5 5.07 10.79
3/29/2021 5:00:00 AM 7.67 45.806 0.233 7.5 4.76 10.82
3/29/2021 5:15:00 AM 7.6 45.68 0.234 7.49 4.66 10.84
3/29/2021 5:30:00 AM 7.54 45.572 0.235 7.49 4.55 10.85
3/29/2021 5:45:00 AM 7.49 45.482 0.235 7.49 4.58 10.87
3/29/2021 6:00:00 AM 7.44 45.392 0.234 7.49 4.36 10.89
3/29/2021 6:15:00 AM 7.38 45.284 0.233 7.49 4.44 10.92
3/29/2021 6:30:00 AM 7.32 45.176 0.233 7.49 4.49 10.95
3/29/2021 6:45:00 AM 7.27 45.086 0.232 7.49 4.33 10.98
3/29/2021 7:00:00 AM 7.23 45.014 0.232 7.5 4.31 11.01
3/29/2021 7:15:00 AM 7.18 44.924 0.231 7.5 4.11 11.04
3/29/2021 7:30:00 AM 7.13 44.834 0.231 7.5 4.26 11.09
3/29/2021 7:45:00 AM 7.08 44.744 0.231 7.51 4.07 11.12
3/29/2021 8:00:00 AM 7.04 44.672 0.232 7.51 4.14 11.17
3/29/2021 8:15:00 AM 7 44.6 0.233 7.52 3.97 11.23
3/29/2021 8:30:00 AM 6.96 44.528 0.233 7.54 3.82 11.31
3/29/2021 8:45:00 AM 6.93 44.474 0.232 7.56 3.86 11.46
3/29/2021 9:00:00 AM 6.9 44.42 0.231 7.59 3.91 11.61
3/29/2021 9:15:00 AM 6.87 44.366 0.23 7.61 3.65 11.7
3/29/2021 9:30:00 AM 6.85 44.33 0.229 7.62 3.79 11.76
3/29/2021 9:45:00 AM 6.83 44.294 0.228 7.64 3.51 11.85
3/29/2021 10:00:00 AM 6.82 44.276 0.227 7.67 3.6 12.02
3/29/2021 10:15:00 AM 6.82 44.276 0.226 7.72 3.46 12.2
3/29/2021 10:30:00 AM 6.84 44.312 0.226 7.78 3.42 12.42
3/29/2021 10:45:00 AM 6.89 44.402 0.227 7.87 3.39 12.71
3/29/2021 11:00:00 AM 6.97 44.546 0.228 7.97 3.42 12.96
3/29/2021 11:15:00 AM 7.06 44.708 0.229 8.08 3.39 13.17
3/29/2021 11:30:00 AM 7.23 45.014 0.229 8.2 3.39 13.4
3/29/2021 11:45:00 AM 7.43 45.374 0.228 8.32 3.44 13.54
3/29/2021 12:00:00 PM 7.55 45.59 0.226 8.42 3.26 13.7
3/29/2021 12:15:00 PM 7.76 45.968 0.223 8.52 3.3 13.83
3/29/2021 12:30:00 PM 7.99 46.382 0.221 8.63 3.36 13.91
3/29/2021 12:45:00 PM 8.18 46.724 0.219 8.72 3.22 14.01
3/29/2021 1:00:00 PM 8.37 47.066 0.217 8.79 3.44 14.09
3/29/2021 1:15:00 PM 8.51 47.318 0.215 8.84 3.32 14.12
3/29/2021 1:30:00 PM 8.68 47.624 0.215 8.89 3.25 14.13
3/29/2021 1:45:00 PM 8.87 47.966 0.216 8.94 3.34 14.14
3/29/2021 2:00:00 PM 9.06 48.308 0.216 8.98 3.28 14.14
3/29/2021 2:15:00 PM 9.26 48.668 0.216 9.02 3.34 14.15
3/29/2021 2:30:00 PM 9.43 48.974 0.216 9.05 3.15 14.16
3/29/2021 2:45:00 PM 9.6 49.28 0.216 9.09 3.16 14.15
3/29/2021 3:00:00 PM 9.76 49.568 0.215 9.12 3.14 14.11
3/29/2021 3:15:00 PM 9.9 49.82 0.214 9.15 3.15 14.08
3/29/2021 3:30:00 PM 10.01 50.018 0.213 9.18 3.1 14.04
3/29/2021 3:45:00 PM 10.1 50.18 0.212 9.2 3.23 13.98
3/29/2021 4:00:00 PM 10.18 50.324 0.211 9.21 3.19 13.92
3/29/2021 4:15:00 PM 10.25 50.45 0.212 9.22 3.21 13.86
3/29/2021 4:30:00 PM 10.3 50.54 0.213 9.22 3.36 13.78
3/29/2021 4:45:00 PM 10.34 50.612 0.215 9.22 4.28 13.69
3/29/2021 5:00:00 PM 10.36 50.648 0.216 9.22 3.07 13.6
3/29/2021 5:15:00 PM 10.36 50.648 0.217 9.21 3.14 13.47
3/29/2021 5:30:00 PM 10.35 50.63 0.217 9.21 3.07 13.34
3/29/2021 5:45:00 PM 10.33 50.594 0.217 9.2 3.16 13.22
3/29/2021 6:00:00 PM 10.29 50.522 0.217 9.18 3.04 13.07
3/29/2021 6:15:00 PM 10.24 50.432 0.216 9.16 3.07 12.86
3/29/2021 6:30:00 PM 10.19 50.342 0.216 9.13 2.97 12.69
3/29/2021 6:45:00 PM 10.15 50.27 0.216 9.09 3.2 12.53
3/29/2021 7:00:00 PM 10.1 50.18 0.217 9.04 3.01 12.31
3/29/2021 7:15:00 PM 10.06 50.108 0.218 8.98 3.02 12.12
3/29/2021 7:30:00 PM 10.01 50.018 0.22 8.91 3.1 11.96
3/29/2021 7:45:00 PM 9.96 49.928 0.221 8.83 3.11 11.75
3/29/2021 8:00:00 PM 9.9 49.82 0.222 8.73 3.01 11.57
3/29/2021 8:15:00 PM 9.84 49.712 0.222 8.63 3.15 11.43
3/29/2021 8:30:00 PM 9.78 49.604 0.222 8.53 3.35 11.29
3/29/2021 8:45:00 PM 9.73 49.514 0.221 8.42 3.28 11.17
3/29/2021 9:00:00 PM 9.67 49.406 0.22 8.31 3.17 11.07
3/29/2021 9:15:00 PM 9.61 49.298 0.219 8.2 3.16 11
3/29/2021 9:30:00 PM 9.54 49.172 0.219 8.09 3.15 10.93
3/29/2021 9:45:00 PM 9.48 49.064 0.22 8 3.21 10.86
3/29/2021 10:00:00 PM 9.41 48.938 0.222 7.92 3.18 10.79
3/29/2021 10:15:00 PM 9.34 48.812 0.224 7.86 3.12 10.74
3/29/2021 10:30:00 PM 9.26 48.668 0.226 7.8 3.06 10.71
3/29/2021 10:45:00 PM 9.19 48.542 0.228 7.76 3.12 10.69
3/29/2021 11:00:00 PM 9.12 48.416 0.228 7.73 3.06 10.68
3/29/2021 11:15:00 PM 9.04 48.272 0.228 7.71 2.95 10.68
3/29/2021 11:30:00 PM 8.95 48.11 0.227 7.69 3 10.68
3/29/2021 11:45:00 PM 8.87 47.966 0.226 7.67 3.09 10.68
3/30/2021 12:00:00 AM 8.77 47.786 0.224 7.65 3.4 10.69
3/30/2021 12:15:00 AM 8.68 47.624 0.224 7.63 3.27 10.7
3/30/2021 12:30:00 AM 8.57 47.426 0.224 7.62 3 10.71
3/30/2021 12:45:00 AM 8.47 47.246 0.225 7.61 3.31 10.72
3/30/2021 1:00:00 AM 8.37 47.066 0.226 7.6 3.02 10.74
3/30/2021 1:15:00 AM 8.27 46.886 0.228 7.59 3.05 10.75
3/30/2021 1:30:00 AM 8.17 46.706 0.228 7.58 3.06 10.77
3/30/2021 1:45:00 AM 8.06 46.508 0.228 7.57 3.08 10.79
3/30/2021 2:00:00 AM 7.96 46.328 0.227 7.57 3.18 10.81
3/30/2021 2:15:00 AM 7.86 46.148 0.226 7.56 3.04 10.85
3/30/2021 2:30:00 AM 7.75 45.95 0.225 7.55 2.92 10.88
3/30/2021 2:45:00 AM 7.65 45.77 0.224 7.55 2.94 10.91
3/30/2021 3:00:00 AM 7.53 45.554 0.223 7.54 3.02 10.94
3/30/2021 3:15:00 AM 7.43 45.374 0.224 7.54 2.92 10.97
3/30/2021 3:30:00 AM 7.33 45.194 0.225 7.53 2.86 10.99
3/30/2021 3:45:00 AM 7.23 45.014 0.226 7.53 2.88 11.02
3/30/2021 4:00:00 AM 7.13 44.834 0.228 7.52 2.86 11.05
3/30/2021 4:15:00 AM 7.04 44.672 0.229 7.52 2.91 11.08
3/30/2021 4:30:00 AM 6.95 44.51 0.229 7.52 2.79 11.1
3/30/2021 4:45:00 AM 6.86 44.348 0.228 7.52 2.83 11.14
3/30/2021 5:00:00 AM 6.78 44.204 0.227 7.51 2.93 11.17
3/30/2021 5:15:00 AM 6.69 44.042 0.225 7.51 2.66 11.2
3/30/2021 5:30:00 AM 6.6 43.88 0.224 7.51 2.72 11.24
3/30/2021 5:45:00 AM 6.5 43.7 0.224 7.5 2.66 11.28
3/30/2021 6:00:00 AM 6.42 43.556 0.224 7.5 2.78 11.31
3/30/2021 6:15:00 AM 6.34 43.412 0.225 7.5 2.74 11.33
3/30/2021 6:30:00 AM 6.26 43.268 0.226 7.5 2.66 11.35
3/30/2021 6:45:00 AM 6.18 43.124 0.228 7.49 2.7 11.37
3/30/2021 7:00:00 AM 6.11 42.998 0.229 7.49 2.81 11.4
3/30/2021 7:15:00 AM 6.04 42.872 0.229 7.5 2.72 11.45
3/30/2021 7:30:00 AM 5.97 42.746 0.228 7.5 2.81 11.53
3/30/2021 7:45:00 AM 5.91 42.638 0.227 7.52 2.65 11.64
3/30/2021 8:00:00 AM 5.86 42.548 0.226 7.53 2.62 11.76
3/30/2021 8:15:00 AM 5.81 42.458 0.225 7.55 2.62 11.88
3/30/2021 8:30:00 AM 5.78 42.404 0.224 7.57 2.61 12.05
3/30/2021 8:45:00 AM 5.79 42.422 0.225 7.61 2.61 12.26
3/30/2021 9:00:00 AM 5.83 42.494 0.226 7.65 2.56 12.46
3/30/2021 9:15:00 AM 5.89 42.602 0.227 7.7 2.46 12.67
3/30/2021 9:30:00 AM 5.98 42.764 0.228 7.76 2.46 12.85
3/30/2021 9:45:00 AM 6.08 42.944 0.228 7.81 2.54 13.01
3/30/2021 10:00:00 AM 6.2 43.16 0.227 7.87 2.54 13.18
3/30/2021 10:15:00 AM 6.35 43.43 0.226 7.94 2.57 13.3
3/30/2021 10:30:00 AM 6.51 43.718 0.224 8.01 2.48 13.42
3/30/2021 10:45:00 AM 6.68 44.024 0.222 8.08 2.57 13.55
3/30/2021 11:00:00 AM 6.86 44.348 0.221 8.16 2.38 13.65
3/30/2021 11:15:00 AM 7.03 44.654 0.22 8.23 2.45 13.7
3/30/2021 11:30:00 AM 7.23 45.014 0.219 8.31 2.35 13.77
3/30/2021 11:45:00 AM 7.44 45.392 0.219 8.39 2.32 13.87
3/30/2021 12:00:00 PM 7.66 45.788 0.219 8.45 2.41 13.92
3/30/2021 12:15:00 PM 7.88 46.184 0.22 8.52 2.34 13.92
3/30/2021 12:30:00 PM 8.12 46.616 0.22 8.58 2.36 13.94
3/30/2021 12:45:00 PM 8.37 47.066 0.219 8.64 2.41 13.97
3/30/2021 1:00:00 PM 8.62 47.516 0.218 8.69 2.48 13.99
3/30/2021 1:15:00 PM 8.88 47.984 0.216 8.74 2.46 13.96
3/30/2021 1:30:00 PM 9.16 48.488 0.215 8.79 2.42 13.91
3/30/2021 1:45:00 PM 9.43 48.974 0.214 8.83 2.44 13.87
3/30/2021 2:00:00 PM 9.69 49.442 0.213 8.87 2.57 13.84
3/30/2021 2:15:00 PM 9.95 49.91 0.214 8.91 2.41 13.82
3/30/2021 2:30:00 PM 10.19 50.342 0.214 8.94 2.53 13.8
3/30/2021 2:45:00 PM 10.42 50.756 0.216 8.97 2.46 13.77
3/30/2021 3:00:00 PM 10.62 51.116 0.216 8.99 2.43 13.73
3/30/2021 3:15:00 PM 10.8 51.44 0.216 9.02 2.45 13.68
3/30/2021 3:30:00 PM 10.97 51.746 0.215 9.04 2.49 13.63
3/30/2021 3:45:00 PM 11.08 51.944 0.215 9.06 2.51 13.55
3/30/2021 4:00:00 PM 11.19 52.142 0.214 9.08 2.53 13.5
3/30/2021 4:15:00 PM 11.29 52.322 0.213 9.09 2.47 13.43
3/30/2021 4:30:00 PM 11.38 52.484 0.213 9.1 2.43 13.33
3/30/2021 4:45:00 PM 11.45 52.61 0.214 9.1 2.54 13.23
3/30/2021 5:00:00 PM 11.49 52.682 0.216 9.09 2.59 13.12
3/30/2021 5:15:00 PM 11.53 52.754 0.218 9.09 2.57 13.01
3/30/2021 5:30:00 PM 11.55 52.79 0.219 9.08 2.5 12.86
3/30/2021 5:45:00 PM 11.55 52.79 0.22 9.06 2.59 12.74
3/30/2021 6:00:00 PM 11.55 52.79 0.22 9.05 2.66 12.61
3/30/2021 6:15:00 PM 11.53 52.754 0.22 9.02 2.58 12.41
3/30/2021 6:30:00 PM 11.52 52.736 0.219 8.98 2.64 12.18
3/30/2021 6:45:00 PM 11.5 52.7 0.219 8.93 2.57 12
3/30/2021 7:00:00 PM 11.47 52.646 0.219 8.87 2.59 11.76
3/30/2021 7:15:00 PM 11.45 52.61 0.22 8.81 2.56 11.57
3/30/2021 7:30:00 PM 11.43 52.574 0.221 8.72 2.55 11.39
3/30/2021 7:45:00 PM 11.4 52.52 0.223 8.62 2.53 11.16
3/30/2021 8:00:00 PM 11.37 52.466 0.225 8.51 2.57 10.97
3/30/2021 8:15:00 PM 11.34 52.412 0.226 8.39 2.6 10.83
3/30/2021 8:30:00 PM 11.3 52.34 0.227 8.27 2.7 10.68
3/30/2021 8:45:00 PM 11.27 52.286 0.227 8.15 2.61 10.55
3/30/2021 9:00:00 PM 11.24 52.232 0.227 8.05 2.67 10.45
3/30/2021 9:15:00 PM 11.22 52.196 0.225 7.96 2.83 10.36
3/30/2021 9:30:00 PM 11.19 52.142 0.225 7.89 2.74 10.27
3/30/2021 9:45:00 PM 11.16 52.088 0.224 7.82 2.71 10.19
3/30/2021 10:00:00 PM 11.14 52.052 0.225 7.77 2.71 10.11
3/30/2021 10:15:00 PM 11.11 51.998 0.226 7.73 2.73 10.05
3/30/2021 10:30:00 PM 11.07 51.926 0.228 7.7 2.73 10
3/30/2021 10:45:00 PM 11.03 51.854 0.23 7.67 2.72 9.97
3/30/2021 11:00:00 PM 10.99 51.782 0.231 7.65 2.69 9.95
3/30/2021 11:15:00 PM 10.96 51.728 0.231 7.63 2.63 9.93
3/30/2021 11:30:00 PM 10.92 51.656 0.229 7.61 2.65 9.92
3/30/2021 11:45:00 PM 10.87 51.566 0.226 7.6 2.73 9.92
3/31/2021 12:00:00 AM 10.81 51.458 0.223 7.58 2.84 9.91
3/31/2021 12:15:00 AM 10.76 51.368 0.22 7.57 2.73 9.92
3/31/2021 12:30:00 AM 10.7 51.26 0.217 7.56 2.74 9.91
3/31/2021 12:45:00 AM 10.64 51.152 0.216 7.55 2.76 9.92
3/31/2021 1:00:00 AM 10.58 51.044 0.215 7.55 2.69 9.93
3/31/2021 1:15:00 AM 10.51 50.918 0.216 7.54 2.95 9.93
3/31/2021 1:30:00 AM 10.45 50.81 0.217 7.54 2.73 9.94
3/31/2021 1:45:00 AM 10.38 50.684 0.217 7.53 2.74 9.95
3/31/2021 2:00:00 AM 10.31 50.558 0.217 7.53 2.76 9.97
3/31/2021 2:15:00 AM 10.24 50.432 0.216 7.52 2.82 9.99
3/31/2021 2:30:00 AM 10.16 50.288 0.215 7.51 2.74 10.01
3/31/2021 2:45:00 AM 10.09 50.162 0.214 7.51 2.65 10.02
3/31/2021 3:00:00 AM 10.02 50.036 0.214 7.5 2.65 10.04
3/31/2021 3:15:00 AM 9.95 49.91 0.215 7.49 2.79 10.06
3/31/2021 3:30:00 AM 9.87 49.766 0.216 7.49 2.64 10.07
3/31/2021 3:45:00 AM 9.81 49.658 0.218 7.49 2.78 10.09
3/31/2021 4:00:00 AM 9.75 49.55 0.221 7.49 2.79 10.1
3/31/2021 4:15:00 AM 9.69 49.442 0.223 7.48 2.63 10.11
3/31/2021 4:30:00 AM 9.63 49.334 0.225 7.48 2.69 10.13
3/31/2021 4:45:00 AM 9.57 49.226 0.226 7.48 2.71 10.14
3/31/2021 5:00:00 AM 9.52 49.136 0.226 7.47 2.76 10.16
3/31/2021 5:15:00 AM 9.46 49.028 0.226 7.47 2.64 10.19
3/31/2021 5:30:00 AM 9.4 48.92 0.225 7.47 2.63 10.21
3/31/2021 5:45:00 AM 9.34 48.812 0.226 7.46 2.73 10.22
3/31/2021 6:00:00 AM 9.27 48.686 0.226 7.46 2.71 10.24
3/31/2021 6:15:00 AM 9.21 48.578 0.227 7.46 2.87 10.26
3/31/2021 6:30:00 AM 9.16 48.488 0.228 7.46 2.7 10.27
3/31/2021 6:45:00 AM 9.11 48.398 0.23 7.46 2.72 10.29
3/31/2021 7:00:00 AM 9.06 48.308 0.232 7.46 2.66 10.32
3/31/2021 7:15:00 AM 9.02 48.236 0.232 7.46 2.65 10.35
3/31/2021 7:30:00 AM 8.98 48.164 0.231 7.47 2.62 10.4
3/31/2021 7:45:00 AM 8.95 48.11 0.23 7.47 2.64 10.47
3/31/2021 8:00:00 AM 8.92 48.056 0.229 7.48 2.53 10.53
3/31/2021 8:15:00 AM 8.89 48.002 0.227 7.49 2.6 10.62
3/31/2021 8:30:00 AM 8.87 47.966 0.227 7.5 2.49 10.67
3/31/2021 8:45:00 AM 8.84 47.912 0.227 7.5 2.54 10.69
3/31/2021 9:00:00 AM 8.82 47.876 0.227 7.51 2.49 10.72
3/31/2021 9:15:00 AM 8.79 47.822 0.227 7.51 2.46 10.75
3/31/2021 9:30:00 AM 8.77 47.786 0.228 7.52 2.53 10.8
3/31/2021 9:45:00 AM 8.75 47.75 0.228 7.54 2.49 10.85
3/31/2021 10:00:00 AM 8.73 47.714 0.227 7.56 2.57 10.95
3/31/2021 10:15:00 AM 8.72 47.696 0.224 7.58 2.55 11.07
3/31/2021 10:30:00 AM 8.71 47.678 0.222 7.6 2.49 11.19
3/31/2021 10:45:00 AM 8.71 47.678 0.219 7.63 2.55 11.33
3/31/2021 11:00:00 AM 8.69 47.642 0.216 7.65 2.84 11.38
3/31/2021 11:15:00 AM 8.69 47.642 0.212 7.68 3.06 11.51
3/31/2021 11:30:00 AM 8.68 47.624 0.211 7.68 3.52 11.5
3/31/2021 11:45:00 AM 8.69 47.642 0.21 7.71 3.95 11.6
3/31/2021 12:00:00 PM 8.72 47.696 0.211 7.74 4.61 11.69
3/31/2021 12:15:00 PM 8.73 47.714 0.212 7.76 5.69 11.75
3/31/2021 12:30:00 PM 8.76 47.768 0.213 7.79 6.67 11.8
3/31/2021 12:45:00 PM 8.79 47.822 0.212 7.83 6.68 11.91
3/31/2021 1:00:00 PM 8.82 47.876 0.212 7.87 6.61 11.98
3/31/2021 1:15:00 PM 8.86 47.948 0.211 7.92 6.61 12.05
3/31/2021 1:30:00 PM 8.92 48.056 0.21 7.98 6.39 12.2
3/31/2021 1:45:00 PM 8.96 48.128 0.21 8.05 6.45 12.28
3/31/2021 2:00:00 PM 8.99 48.182 0.211 8.09 5.81 12.32
3/31/2021 2:15:00 PM 9.02 48.236 0.211 8.1 5.7 12.27
3/31/2021 2:30:00 PM 9.05 48.29 0.212 8.12 5.68 12.26
3/31/2021 2:45:00 PM 9.08 48.344 0.212 8.15 5.42 12.28
3/31/2021 3:00:00 PM 9.1 48.38 0.211 8.14 5.08 12.2
3/31/2021 3:15:00 PM 9.11 48.398 0.209 8.12 4.68 12.08
3/31/2021 3:30:00 PM 9.13 48.434 0.209 8.08 4.93 11.96
3/31/2021 3:45:00 PM 9.14 48.452 0.211 8.04 4.91 11.88
3/31/2021 4:00:00 PM 9.16 48.488 0.216 8.01 7.79 11.81
3/31/2021 4:15:00 PM 9.19 48.542 0.22 7.99 6.05 11.8
3/31/2021 4:30:00 PM 9.22 48.596 0.223 8 5.1 11.82
3/31/2021 4:45:00 PM 9.24 48.632 0.226 7.98 5.04 11.75
3/31/2021 5:00:00 PM 9.27 48.686 0.228 7.96 5.22 11.7
3/31/2021 5:15:00 PM 9.31 48.758 0.231 7.96 5.19 11.73
3/31/2021 5:30:00 PM 9.34 48.812 0.234 7.96 4.58 11.72
3/31/2021 5:45:00 PM 9.39 48.902 0.24 7.97 5.51 11.74
3/31/2021 6:00:00 PM 9.44 48.992 0.246 7.98 4.44 11.74
3/31/2021 6:15:00 PM 9.46 49.028 0.254 7.94 4.72 11.64
3/31/2021 6:30:00 PM 9.49 49.082 0.259 7.9 4.49 11.54
3/31/2021 6:45:00 PM 9.51 49.118 0.262 7.86 4.35 11.44
3/31/2021 7:00:00 PM 9.52 49.136 0.263 7.82 4.76 11.3
3/31/2021 7:15:00 PM 9.51 49.118 0.262 7.78 4.93 11.2
3/31/2021 7:30:00 PM 9.5 49.1 0.26 7.75 4.62 11.11
3/31/2021 7:45:00 PM 9.49 49.082 0.259 7.71 4.75 11.02
3/31/2021 8:00:00 PM 9.48 49.064 0.258 7.69 4.63 10.95
3/31/2021 8:15:00 PM 9.46 49.028 0.257 7.67 5.8 10.89
3/31/2021 8:30:00 PM 9.44 48.992 0.256 7.65 4.84 10.84
3/31/2021 8:45:00 PM 9.42 48.956 0.255 7.63 4.98 10.79
3/31/2021 9:00:00 PM 9.4 48.92 0.255 7.61 5.03 10.74
3/31/2021 9:15:00 PM 9.38 48.884 0.256 7.59 5.23 10.69
3/31/2021 9:30:00 PM 9.36 48.848 0.257 7.58 4.82 10.65
3/31/2021 9:45:00 PM 9.34 48.812 0.256 7.56 5.26 10.61
3/31/2021 10:00:00 PM 9.32 48.776 0.255 7.55 5.02 10.59
3/31/2021 10:15:00 PM 9.29 48.722 0.253 7.54 5.3 10.57
3/31/2021 10:30:00 PM 9.26 48.668 0.252 7.53 4.81 10.56
3/31/2021 10:45:00 PM 9.24 48.632 0.25 7.53 4.92 10.55
3/31/2021 11:00:00 PM 9.21 48.578 0.249 7.52 4.89 10.55
3/31/2021 11:15:00 PM 9.18 48.524 0.248 7.51 4.71 10.54
3/31/2021 11:30:00 PM 9.15 48.47 0.247 7.51 6.47 10.55
3/31/2021 11:45:00 PM 9.12 48.416 0.247 7.51 4.49 10.54
4/1/2021 12:00:00 AM 9.07 48.326 0.248 7.5 4.48 10.55
4/1/2021 12:15:00 AM 9.01 48.218 0.249 7.5 4.43 10.55
4/1/2021 12:30:00 AM 8.96 48.128 0.25 7.5 4.5 10.55
4/1/2021 12:45:00 AM 8.89 48.002 0.249 7.5 4.22 10.56
4/1/2021 1:00:00 AM 8.83 47.894 0.249 7.49 4.29 10.57
4/1/2021 1:15:00 AM 8.78 47.804 0.248 7.49 4.33 10.58
4/1/2021 1:30:00 AM 8.73 47.714 0.246 7.49 4.27 10.6
4/1/2021 1:45:00 AM 8.66 47.588 0.244 7.49 4.14 10.62
4/1/2021 2:00:00 AM 8.6 47.48 0.242 7.49 4.12 10.63
4/1/2021 2:15:00 AM 8.53 47.354 0.239 7.49 4.27 10.65
4/1/2021 2:30:00 AM 8.46 47.228 0.237 7.48 4.5 10.68
4/1/2021 2:45:00 AM 8.4 47.12 0.236 7.48 4.5 10.69
4/1/2021 3:00:00 AM 8.34 47.012 0.237 7.48 4.72 10.71
4/1/2021 3:15:00 AM 8.29 46.922 0.238 7.48 4.94 10.72
4/1/2021 3:30:00 AM 8.23 46.814 0.238 7.48 5.25 10.74
4/1/2021 3:45:00 AM 8.18 46.724 0.237 7.48 5.39 10.74
4/1/2021 4:00:00 AM 8.14 46.652 0.235 7.48 5.15 10.75
4/1/2021 4:15:00 AM 8.09 46.562 0.234 7.48 6.51 10.78
4/1/2021 4:30:00 AM 8.05 46.49 0.232 7.48 5.44 10.79
4/1/2021 4:45:00 AM 8.01 46.418 0.23 7.48 5.46 10.8
4/1/2021 5:00:00 AM 7.96 46.328 0.227 7.48 5.29 10.82
4/1/2021 5:15:00 AM 7.92 46.256 0.225 7.48 5.34 10.83
4/1/2021 5:30:00 AM 7.88 46.184 0.224 7.48 4.97 10.85
4/1/2021 5:45:00 AM 7.84 46.112 0.224 7.48 4.67 10.85
4/1/2021 6:00:00 AM 7.8 46.04 0.224 7.48 4.83 10.87
4/1/2021 6:15:00 AM 7.77 45.986 0.224 7.49 4.64 10.88
4/1/2021 6:30:00 AM 7.73 45.914 0.223 7.49 4.63 10.9
4/1/2021 6:45:00 AM 7.7 45.86 0.222 7.49 4.71 10.91
4/1/2021 7:00:00 AM 7.67 45.806 0.222 7.49 4.57 10.93
4/1/2021 7:15:00 AM 7.63 45.734 0.222 7.49 4.63 10.96
4/1/2021 7:30:00 AM 7.6 45.68 0.223 7.5 4.7 10.99
4/1/2021 7:45:00 AM 7.57 45.626 0.225 7.51 4.66 11.05
4/1/2021 8:00:00 AM 7.55 45.59 0.227 7.52 4.61 11.13
4/1/2021 8:15:00 AM 7.51 45.518 0.228 7.53 4.53 11.16
4/1/2021 8:30:00 AM 7.48 45.464 0.227 7.54 4.42 11.24
4/1/2021 8:45:00 AM 7.46 45.428 0.226 7.56 4.5 11.36
4/1/2021 9:00:00 AM 7.39 45.302 0.225 7.58 4.35 11.42
4/1/2021 9:15:00 AM 7.32 45.176 0.225 7.59 4.26 11.47
4/1/2021 9:30:00 AM 7.25 45.05 0.226 7.6 4.09 11.52
4/1/2021 9:45:00 AM 7.24 45.032 0.227 7.63 4.01 11.69
4/1/2021 10:00:00 AM 7.31 45.158 0.229 7.68 4.01 11.97
4/1/2021 10:15:00 AM 7.33 45.194 0.231 7.74 4.2 12.14
4/1/2021 10:30:00 AM 7.37 45.266 0.234 7.78 3.96 12.29
4/1/2021 10:45:00 AM 7.39 45.302 0.235 7.83 4.17 12.41
4/1/2021 11:00:00 AM 7.4 45.32 0.235 7.87 4.26 12.49
4/1/2021 11:15:00 AM 7.41 45.338 0.235 7.92 4.24 12.61
4/1/2021 11:30:00 AM 7.43 45.374 0.234 7.98 4.45 12.69
4/1/2021 11:45:00 AM 7.42 45.356 0.233 8.02 4.25 12.73
4/1/2021 12:00:00 PM 7.45 45.41 0.232 8.09 4.15 12.87
4/1/2021 12:15:00 PM 7.45 45.41 0.231 8.15 4.1 12.95
4/1/2021 12:30:00 PM 7.45 45.41 0.23 8.22 4.34 13.05
4/1/2021 12:45:00 PM 7.45 45.41 0.231 8.28 4.31 13.14
4/1/2021 1:00:00 PM 7.42 45.356 0.232 8.31 4.58 13.16
4/1/2021 1:15:00 PM 7.4 45.32 0.232 8.33 4.35 13.16
4/1/2021 1:30:00 PM 7.37 45.266 0.232 8.33 4.26 13.1
4/1/2021 1:45:00 PM 7.3 45.14 0.23 8.28 4.17 12.93
4/1/2021 2:00:00 PM 7.27 45.086 0.228 8.28 4.23 12.94
4/1/2021 2:15:00 PM 7.25 45.05 0.227 8.31 4.37 13.01
4/1/2021 2:30:00 PM 7.27 45.086 0.226 8.38 4.24 13.17
4/1/2021 2:45:00 PM 7.37 45.266 0.225 8.45 4.24 13.3
4/1/2021 3:00:00 PM 7.44 45.392 0.224 8.52 4.44 13.38
4/1/2021 3:15:00 PM 7.46 45.428 0.222 8.57 4.4 13.42
4/1/2021 3:30:00 PM 7.43 45.374 0.223 8.58 4.15 13.38
4/1/2021 3:45:00 PM 7.38 45.284 0.224 8.56 4.14 13.3
4/1/2021 4:00:00 PM 7.39 45.302 0.226 8.57 4.17 13.33
4/1/2021 4:15:00 PM 7.4 45.32 0.227 8.59 4.26 13.36
4/1/2021 4:30:00 PM 7.35 45.23 0.226 8.6 4.4 13.34
4/1/2021 4:45:00 PM 7.33 45.194 0.225 8.59 4.32 13.31
4/1/2021 5:00:00 PM 7.37 45.266 0.224 8.63 4.33 13.36
4/1/2021 5:15:00 PM 7.32 45.176 0.224 8.61 4.58 13.27
4/1/2021 5:30:00 PM 7.29 45.122 0.227 8.58 4.47 13.21
4/1/2021 5:45:00 PM 7.27 45.086 0.23 8.54 4.51 13.15
4/1/2021 6:00:00 PM 7.22 44.996 0.231 8.48 4.37 13.01
4/1/2021 6:15:00 PM 7.17 44.906 0.231 8.45 4.26 12.96
4/1/2021 6:30:00 PM 7.11 44.798 0.231 8.41 4.33 12.88
4/1/2021 6:45:00 PM 7.06 44.708 0.231 8.36 4.25 12.82
4/1/2021 7:00:00 PM 7.02 44.636 0.233 8.3 4.32 12.71
4/1/2021 7:15:00 PM 6.96 44.528 0.235 8.22 4.34 12.56
4/1/2021 7:30:00 PM 6.88 44.384 0.238 8.14 4.46 12.45
4/1/2021 7:45:00 PM 6.81 44.258 0.24 8.06 4.47 12.34
4/1/2021 8:00:00 PM 6.73 44.114 0.242 7.99 4.61 12.24
4/1/2021 8:15:00 PM 6.66 43.988 0.243 7.93 4.58 12.15
4/1/2021 8:30:00 PM 6.58 43.844 0.245 7.87 4.71 12.06
4/1/2021 8:45:00 PM 6.51 43.718 0.248 7.83 4.87 12
4/1/2021 9:00:00 PM 6.44 43.592 0.251 7.79 4.65 11.95
4/1/2021 9:15:00 PM 6.39 43.502 0.252 7.76 4.76 11.9
4/1/2021 9:30:00 PM 6.35 43.43 0.252 7.73 4.79 11.86
4/1/2021 9:45:00 PM 6.29 43.322 0.251 7.7 4.8 11.83
4/1/2021 10:00:00 PM 6.24 43.232 0.251 7.68 5 11.79
4/1/2021 10:15:00 PM 6.18 43.124 0.252 7.65 5.11 11.73
4/1/2021 10:30:00 PM 6.12 43.016 0.252 7.63 5.59 11.68
4/1/2021 10:45:00 PM 6.07 42.926 0.252 7.61 5.37 11.66
4/1/2021 11:00:00 PM 5.99 42.782 0.251 7.6 5.25 11.65
4/1/2021 11:15:00 PM 5.91 42.638 0.249 7.59 5.2 11.69
4/1/2021 11:30:00 PM 5.86 42.548 0.247 7.59 5.69 11.7
4/1/2021 11:45:00 PM 5.79 42.422 0.245 7.58 5.06 11.73
4/2/2021 12:00:00 AM 5.73 42.314 0.243 7.58 4.95 11.74
4/2/2021 12:15:00 AM 5.67 42.206 0.243 7.57 4.8 11.76
4/2/2021 12:30:00 AM 5.62 42.116 0.243 7.57 4.75 11.77
4/2/2021 12:45:00 AM 5.57 42.026 0.243 7.56 4.85 11.79
4/2/2021 1:00:00 AM 5.49 41.882 0.243 7.56 4.69 11.79
4/2/2021 1:15:00 AM 5.41 41.738 0.242 7.56 4.63 11.81
4/2/2021 1:30:00 AM 5.33 41.594 0.242 7.55 4.68 11.82
4/2/2021 1:45:00 AM 5.25 41.45 0.242 7.55 4.6 11.85
4/2/2021 2:00:00 AM 5.17 41.306 0.242 7.55 4.64 11.87
4/2/2021 2:15:00 AM 5.1 41.18 0.242 7.54 4.44 11.88
4/2/2021 2:30:00 AM 5.03 41.054 0.243 7.54 4.33 11.89
4/2/2021 2:45:00 AM 4.97 40.946 0.244 7.54 4.41 11.91
4/2/2021 3:00:00 AM 4.9 40.82 0.244 7.54 4.3 11.92
4/2/2021 3:15:00 AM 4.83 40.694 0.243 7.53 4.26 11.94
4/2/2021 3:30:00 AM 4.76 40.568 0.242 7.53 4.25 11.97
4/2/2021 3:45:00 AM 4.7 40.46 0.241 7.53 4.19 11.99
4/2/2021 4:00:00 AM 4.64 40.352 0.241 7.53 4.28 12
4/2/2021 4:15:00 AM 4.57 40.226 0.24 7.53 4.07 12.02
4/2/2021 4:30:00 AM 4.51 40.118 0.238 7.53 4.24 12.05
4/2/2021 4:45:00 AM 4.45 40.01 0.236 7.51 4.3 12.07
4/2/2021 5:00:00 AM 4.37 39.866 0.233 7.5 4.23 12.11
4/2/2021 5:15:00 AM 4.3 39.74 0.231 7.5 4.32 12.14
4/2/2021 5:30:00 AM 4.24 39.632 0.23 7.49 4.58 12.17
4/2/2021 5:45:00 AM 4.17 39.506 0.229 7.48 4.06 12.2
4/2/2021 6:00:00 AM 4.11 39.398 0.229 7.48 4.08 12.23
4/2/2021 6:15:00 AM 4.05 39.29 0.228 7.47 3.91 12.26
4/2/2021 6:30:00 AM 3.99 39.182 0.228 7.47 3.94 12.28
4/2/2021 6:45:00 AM 3.94 39.092 0.228 7.47 3.89 12.31
4/2/2021 7:00:00 AM 3.88 38.984 0.228 7.47 3.8 12.33
4/2/2021 7:15:00 AM 3.83 38.894 0.229 7.47 3.72 12.38
4/2/2021 7:30:00 AM 3.8 38.84 0.23 7.48 3.61 12.45
4/2/2021 7:45:00 AM 3.76 38.768 0.231 7.5 3.6 12.52
4/2/2021 8:00:00 AM 3.74 38.732 0.23 7.51 3.67 12.61
4/2/2021 8:15:00 AM 3.7 38.66 0.23 7.54 3.56 12.71
4/2/2021 8:30:00 AM 3.7 38.66 0.229 7.57 3.94 12.83
4/2/2021 8:45:00 AM 3.72 38.696 0.228 7.61 3.5 12.99
4/2/2021 9:00:00 AM 3.76 38.768 0.228 7.65 3.37 13.14
4/2/2021 9:15:00 AM 3.83 38.894 0.228 7.69 3.41 13.28
4/2/2021 9:30:00 AM 3.89 39.002 0.226 7.74 3.21 13.41
4/2/2021 9:45:00 AM 3.95 39.11 0.225 7.78 3.37 13.54
4/2/2021 10:00:00 AM 4.06 39.308 0.223 7.83 3.24 13.67
4/2/2021 10:15:00 AM 4.18 39.524 0.221 7.88 3.36 13.77
4/2/2021 10:30:00 AM 4.31 39.758 0.22 7.93 3.27 13.86
4/2/2021 10:45:00 AM 4.43 39.974 0.22 7.99 3.13 13.95
4/2/2021 11:00:00 AM 4.57 40.226 0.219 8.05 3.21 14.03
4/2/2021 11:15:00 AM 4.73 40.514 0.218 8.11 3.12 14.1
4/2/2021 11:30:00 AM 4.91 40.838 0.217 8.17 3.06 14.12
4/2/2021 11:45:00 AM 5.07 41.126 0.216 8.23 3.17 14.15
4/2/2021 12:00:00 PM 5.26 41.468 0.216 8.29 3.13 14.2
4/2/2021 12:15:00 PM 5.47 41.846 0.216 8.35 3.07 14.23
4/2/2021 12:30:00 PM 5.69 42.242 0.217 8.39 3.06 14.25
4/2/2021 12:45:00 PM 5.91 42.638 0.219 8.45 3.06 14.24
4/2/2021 1:00:00 PM 6.14 43.052 0.219 8.5 3.02 14.2
4/2/2021 1:15:00 PM 6.37 43.466 0.218 8.54 3.11 14.19
4/2/2021 1:30:00 PM 6.58 43.844 0.216 8.59 3.09 14.18
4/2/2021 1:45:00 PM 6.77 44.186 0.214 8.63 2.98 14.14
4/2/2021 2:00:00 PM 6.93 44.474 0.214 8.66 3.06 14.14
4/2/2021 2:15:00 PM 7.12 44.816 0.214 8.69 3.12 14.11
4/2/2021 2:30:00 PM 7.3 45.14 0.215 8.72 3.08 14.09
4/2/2021 2:45:00 PM 7.48 45.464 0.215 8.75 3.14 14.05
4/2/2021 3:00:00 PM 7.66 45.788 0.214 8.77 3.07 14
4/2/2021 3:15:00 PM 7.81 46.058 0.212 8.8 3.22 13.93
4/2/2021 3:30:00 PM 7.92 46.256 0.211 8.83 3.05 13.88
4/2/2021 3:45:00 PM 8 46.4 0.211 8.85 3.19 13.84
4/2/2021 4:00:00 PM 8.06 46.508 0.211 8.86 3.1 13.8
4/2/2021 4:15:00 PM 8.09 46.562 0.211 8.87 3.12 13.75
4/2/2021 4:30:00 PM 8.11 46.598 0.211 8.89 3.12 13.71
4/2/2021 4:45:00 PM 8.15 46.67 0.211 8.89 3.04 13.64
4/2/2021 5:00:00 PM 8.15 46.67 0.212 8.89 3 13.57
4/2/2021 5:15:00 PM 8.14 46.652 0.212 8.88 3.1 13.47
4/2/2021 5:30:00 PM 8.12 46.616 0.213 8.87 3.03 13.36
4/2/2021 5:45:00 PM 8.08 46.544 0.216 8.86 3.08 13.26
4/2/2021 6:00:00 PM 8.04 46.472 0.218 8.83 3.09 13.15
4/2/2021 6:15:00 PM 7.99 46.382 0.22 8.79 3.31 13.06
4/2/2021 6:30:00 PM 7.93 46.274 0.221 8.75 3.12 12.95
4/2/2021 6:45:00 PM 7.87 46.166 0.22 8.7 3.1 12.79
4/2/2021 7:00:00 PM 7.82 46.076 0.219 8.64 3.14 12.64
4/2/2021 7:15:00 PM 7.75 45.95 0.22 8.58 3.24 12.53
4/2/2021 7:30:00 PM 7.69 45.842 0.22 8.49 3.27 12.41
4/2/2021 7:45:00 PM 7.64 45.752 0.222 8.39 3.31 12.26
4/2/2021 8:00:00 PM 7.58 45.644 0.222 8.27 3.23 12.12
4/2/2021 8:15:00 PM 7.51 45.518 0.221 8.17 3.23 12.01
4/2/2021 8:30:00 PM 7.45 45.41 0.221 8.08 3.34 11.92
4/2/2021 8:45:00 PM 7.37 45.266 0.219 8 3.45 11.83
4/2/2021 9:00:00 PM 7.28 45.104 0.219 7.94 3.33 11.75
4/2/2021 9:15:00 PM 7.21 44.978 0.218 7.89 3.24 11.7
4/2/2021 9:30:00 PM 7.13 44.834 0.218 7.84 3.31 11.66
4/2/2021 9:45:00 PM 7.04 44.672 0.217 7.8 3.23 11.63
4/2/2021 10:00:00 PM 6.96 44.528 0.218 7.77 3.23 11.61
4/2/2021 10:15:00 PM 6.89 44.402 0.217 7.74 3.42 11.58
4/2/2021 10:30:00 PM 6.81 44.258 0.217 7.71 3.38 11.57
4/2/2021 10:45:00 PM 6.72 44.096 0.218 7.69 3.24 11.55
4/2/2021 11:00:00 PM 6.64 43.952 0.219 7.67 3.37 11.55
4/2/2021 11:15:00 PM 6.56 43.808 0.221 7.66 3.44 11.55
4/2/2021 11:30:00 PM 6.48 43.664 0.223 7.64 3.43 11.55
4/2/2021 11:45:00 PM 6.38 43.484 0.223 7.63 3.81 11.56
4/3/2021 12:00:00 AM 6.29 43.322 0.222 7.62 3.38 11.57
4/3/2021 12:15:00 AM 6.19 43.142 0.221 7.61 3.44 11.59
4/3/2021 12:30:00 AM 6.1 42.98 0.22 7.6 3.34 11.61
4/3/2021 12:45:00 AM 6.02 42.836 0.221 7.59 3.36 11.62
4/3/2021 1:00:00 AM 5.92 42.656 0.222 7.58 3.29 11.65
4/3/2021 1:15:00 AM 5.82 42.476 0.222 7.57 3.22 11.67
4/3/2021 1:30:00 AM 5.73 42.314 0.221 7.56 3.23 11.7
4/3/2021 1:45:00 AM 5.63 42.134 0.219 7.56 3.23 11.73
4/3/2021 2:00:00 AM 5.54 41.972 0.218 7.55 3.3 11.76
4/3/2021 2:15:00 AM 5.46 41.828 0.217 7.55 3.18 11.79
4/3/2021 2:30:00 AM 5.37 41.666 0.217 7.55 3.06 11.82
4/3/2021 2:45:00 AM 5.28 41.504 0.216 7.54 3.17 11.85
4/3/2021 3:00:00 AM 5.19 41.342 0.215 7.54 3.03 11.89
4/3/2021 3:15:00 AM 5.11 41.198 0.214 7.53 3.08 11.92
4/3/2021 3:30:00 AM 5.02 41.036 0.213 7.53 3.08 11.95
4/3/2021 3:45:00 AM 4.94 40.892 0.213 7.53 3.18 11.97
4/3/2021 4:00:00 AM 4.87 40.766 0.214 7.53 3.22 11.99
4/3/2021 4:15:00 AM 4.8 40.64 0.215 7.52 3.21 12.01
4/3/2021 4:30:00 AM 4.73 40.514 0.216 7.52 3.08 12.04
4/3/2021 4:45:00 AM 4.67 40.406 0.217 7.52 3.03 12.06
4/3/2021 5:00:00 AM 4.61 40.298 0.217 7.52 3.08 12.08
4/3/2021 5:15:00 AM 4.54 40.172 0.215 7.52 2.97 12.11
4/3/2021 5:30:00 AM 4.49 40.082 0.214 7.52 2.94 12.13
4/3/2021 5:45:00 AM 4.42 39.956 0.214 7.51 2.82 12.16
4/3/2021 6:00:00 AM 4.36 39.848 0.214 7.51 2.9 12.18
4/3/2021 6:15:00 AM 4.31 39.758 0.215 7.51 3.02 12.19
4/3/2021 6:30:00 AM 4.26 39.668 0.215 7.51 2.9 12.2
4/3/2021 6:45:00 AM 4.2 39.56 0.214 7.5 2.86 12.23
4/3/2021 7:00:00 AM 4.14 39.452 0.213 7.5 2.88 12.26
4/3/2021 7:15:00 AM 4.09 39.362 0.212 7.51 2.83 12.34
4/3/2021 7:30:00 AM 4.05 39.29 0.211 7.51 2.8 12.43
4/3/2021 7:45:00 AM 4.01 39.218 0.21 7.52 2.73 12.52
4/3/2021 8:00:00 AM 3.98 39.164 0.21 7.53 2.7 12.62
4/3/2021 8:15:00 AM 3.96 39.128 0.209 7.55 2.71 12.73
4/3/2021 8:30:00 AM 3.96 39.128 0.208 7.58 2.74 12.87
4/3/2021 8:45:00 AM 3.99 39.182 0.207 7.62 2.72 13.06
4/3/2021 9:00:00 AM 4.04 39.272 0.206 7.66 2.83 13.21
4/3/2021 9:15:00 AM 4.12 39.416 0.206 7.7 2.64 13.34
4/3/2021 9:30:00 AM 4.21 39.578 0.207 7.76 2.66 13.48
4/3/2021 9:45:00 AM 4.32 39.776 0.208 7.8 2.6 13.62
4/3/2021 10:00:00 AM 4.44 39.992 0.209 7.86 2.63 13.73
4/3/2021 10:15:00 AM 4.56 40.208 0.209 7.92 2.67 13.82
4/3/2021 10:30:00 AM 4.72 40.496 0.208 7.98 2.61 13.92
4/3/2021 10:45:00 AM 4.9 40.82 0.206 8.04 2.58 13.98
4/3/2021 11:00:00 AM 5.06 41.108 0.204 8.1 2.58 14.03
4/3/2021 11:15:00 AM 5.24 41.432 0.204 8.16 2.58 14.08
4/3/2021 11:30:00 AM 5.45 41.81 0.204 8.22 2.57 14.12
4/3/2021 11:45:00 AM 5.67 42.206 0.204 8.29 2.54 14.17
4/3/2021 12:00:00 PM 5.86 42.548 0.203 8.35 2.58 14.21
4/3/2021 12:15:00 PM 6 42.8 0.202 8.42 2.61 14.21
4/3/2021 12:30:00 PM 6.2 43.16 0.201 8.49 2.72 14.2
4/3/2021 12:45:00 PM 6.44 43.592 0.199 8.55 2.84 14.2
4/3/2021 1:00:00 PM 6.67 44.006 0.198 8.6 2.63 14.19
4/3/2021 1:15:00 PM 6.91 44.438 0.198 8.65 2.86 14.18
4/3/2021 1:30:00 PM 7.12 44.816 0.198 8.69 2.73 14.17
4/3/2021 1:45:00 PM 7.37 45.266 0.197 8.74 2.62 14.12
4/3/2021 2:00:00 PM 7.59 45.662 0.196 8.77 2.65 14.06
4/3/2021 2:15:00 PM 7.82 46.076 0.196 8.81 2.61 14.01
4/3/2021 2:30:00 PM 7.97 46.346 0.196 8.84 2.66 13.96
4/3/2021 2:45:00 PM 8.1 46.58 0.196 8.87 2.65 13.95
4/3/2021 3:00:00 PM 8.24 46.832 0.198 8.9 2.75 13.93
4/3/2021 3:15:00 PM 8.43 47.174 0.2 8.92 2.74 13.93
4/3/2021 3:30:00 PM 8.57 47.426 0.201 8.95 2.67 13.92
4/3/2021 3:45:00 PM 8.68 47.624 0.201 8.98 2.71 13.9
4/3/2021 4:00:00 PM 8.77 47.786 0.2 8.99 2.82 13.84
4/3/2021 4:15:00 PM 8.77 47.786 0.199 9.01 2.74 13.75
4/3/2021 4:30:00 PM 8.81 47.858 0.199 9.02 2.84 13.69
4/3/2021 4:45:00 PM 8.89 48.002 0.199 9.03 2.67 13.65
4/3/2021 5:00:00 PM 8.98 48.164 0.2 9.04 2.7 13.63
4/3/2021 5:15:00 PM 9.01 48.218 0.201 9.04 2.83 13.54
4/3/2021 5:30:00 PM 9.01 48.218 0.202 9.03 2.77 13.41
4/3/2021 5:45:00 PM 9.03 48.254 0.202 9.02 2.9 13.32
4/3/2021 6:00:00 PM 9.05 48.29 0.201 9.02 2.74 13.24
4/3/2021 6:15:00 PM 9.03 48.254 0.201 9 2.9 13.08
4/3/2021 6:30:00 PM 9.01 48.218 0.202 8.96 2.99 12.84
4/3/2021 6:45:00 PM 8.99 48.182 0.202 8.91 2.81 12.65
4/3/2021 7:00:00 PM 8.98 48.164 0.202 8.86 3.29 12.53
4/3/2021 7:15:00 PM 8.97 48.146 0.202 8.81 2.87 12.36
4/3/2021 7:30:00 PM 8.95 48.11 0.202 8.73 2.88 12.15
4/3/2021 7:45:00 PM 8.94 48.092 0.203 8.63 2.97 11.97
4/3/2021 8:00:00 PM 8.92 48.056 0.204 8.5 2.92 11.8
4/3/2021 8:15:00 PM 8.9 48.02 0.206 8.37 3.16 11.63
4/3/2021 8:30:00 PM 8.89 48.002 0.208 8.23 3.24 11.5
4/3/2021 8:45:00 PM 8.88 47.984 0.21 8.11 2.99 11.41
4/3/2021 9:00:00 PM 8.86 47.948 0.211 8.01 3.07 11.31
4/3/2021 9:15:00 PM 8.83 47.894 0.21 7.93 3.06 11.22
4/3/2021 9:30:00 PM 8.81 47.858 0.209 7.86 2.99 11.14
4/3/2021 9:45:00 PM 8.77 47.786 0.209 7.81 3 11.08
4/3/2021 10:00:00 PM 8.74 47.732 0.209 7.77 2.82 11.02
4/3/2021 10:15:00 PM 8.71 47.678 0.21 7.73 3.19 10.97
4/3/2021 10:30:00 PM 8.67 47.606 0.212 7.7 2.95 10.94
4/3/2021 10:45:00 PM 8.63 47.534 0.212 7.67 2.98 10.9
4/3/2021 11:00:00 PM 8.58 47.444 0.211 7.64 2.94 10.89
4/3/2021 11:15:00 PM 8.54 47.372 0.21 7.62 3.03 10.88
4/3/2021 11:30:00 PM 8.49 47.282 0.208 7.6 3.02 10.88
4/3/2021 11:45:00 PM 8.44 47.192 0.207 7.59 2.93 10.87
4/4/2021 12:00:00 AM 8.39 47.102 0.207 7.58 2.88 10.88
4/4/2021 12:15:00 AM 8.33 46.994 0.206 7.57 2.92 10.88
4/4/2021 12:30:00 AM 8.27 46.886 0.205 7.56 2.97 10.87
4/4/2021 12:45:00 AM 8.21 46.778 0.205 7.54 3.04 10.87
4/4/2021 1:00:00 AM 8.14 46.652 0.204 7.54 2.89 10.88
4/4/2021 1:15:00 AM 8.08 46.544 0.204 7.53 2.97 10.89
4/4/2021 1:30:00 AM 8 46.4 0.205 7.52 2.87 10.89
4/4/2021 1:45:00 AM 7.94 46.292 0.207 7.52 3.04 10.89
4/4/2021 2:00:00 AM 7.87 46.166 0.209 7.51 2.86 10.89
4/4/2021 2:15:00 AM 7.8 46.04 0.209 7.51 2.96 10.9
4/4/2021 2:30:00 AM 7.73 45.914 0.209 7.5 2.94 10.92
4/4/2021 2:45:00 AM 7.67 45.806 0.207 7.5 2.8 10.93
4/4/2021 3:00:00 AM 7.61 45.698 0.206 7.49 2.98 10.95
4/4/2021 3:15:00 AM 7.54 45.572 0.206 7.49 3.01 10.96
4/4/2021 3:30:00 AM 7.48 45.464 0.206 7.49 3.1 10.98
4/4/2021 3:45:00 AM 7.42 45.356 0.207 7.48 3.27 10.99
4/4/2021 4:00:00 AM 7.37 45.266 0.208 7.48 3.24 11
4/4/2021 4:15:00 AM 7.3 45.14 0.208 7.48 3.28 11.01
4/4/2021 4:30:00 AM 7.23 45.014 0.207 7.47 3.24 11.03
4/4/2021 4:45:00 AM 7.17 44.906 0.206 7.47 3.08 11.06
4/4/2021 5:00:00 AM 7.11 44.798 0.205 7.47 3 11.09
4/4/2021 5:15:00 AM 7.05 44.69 0.204 7.47 2.93 11.11
4/4/2021 5:30:00 AM 7 44.6 0.204 7.47 2.87 11.13
4/4/2021 5:45:00 AM 6.95 44.51 0.204 7.47 2.93 11.15
4/4/2021 6:00:00 AM 6.91 44.438 0.203 7.47 2.95 11.17
4/4/2021 6:15:00 AM 6.87 44.366 0.202 7.47 2.86 11.19
4/4/2021 6:30:00 AM 6.83 44.294 0.202 7.47 2.79 11.2
4/4/2021 6:45:00 AM 6.78 44.204 0.202 7.47 2.8 11.22
4/4/2021 7:00:00 AM 6.74 44.132 0.203 7.48 2.73 11.24
4/4/2021 7:15:00 AM 6.7 44.06 0.204 7.48 2.81 11.28
4/4/2021 7:30:00 AM 6.67 44.006 0.206 7.5 2.75 11.37
4/4/2021 7:45:00 AM 6.65 43.97 0.207 7.52 2.73 11.48
4/4/2021 8:00:00 AM 6.63 43.934 0.205 7.54 2.68 11.61
4/4/2021 8:15:00 AM 6.63 43.934 0.204 7.57 2.75 11.76
4/4/2021 8:30:00 AM 6.65 43.97 0.202 7.6 2.8 11.92
4/4/2021 8:45:00 AM 6.69 44.042 0.201 7.64 2.75 12.1
4/4/2021 9:00:00 AM 6.75 44.15 0.2 7.69 2.66 12.29
4/4/2021 9:15:00 AM 6.81 44.258 0.2 7.74 2.76 12.45
4/4/2021 9:30:00 AM 6.89 44.402 0.2 7.8 2.68 12.6
4/4/2021 9:45:00 AM 7 44.6 0.201 7.86 2.68 12.75
4/4/2021 10:00:00 AM 7.13 44.834 0.2 7.92 2.79 12.87
4/4/2021 10:15:00 AM 7.28 45.104 0.2 8.01 2.73 12.99
4/4/2021 10:30:00 AM 7.43 45.374 0.199 8.09 2.78 13.14
4/4/2021 10:45:00 AM 7.6 45.68 0.198 8.18 2.76 13.23
4/4/2021 11:00:00 AM 7.77 45.986 0.197 8.27 2.73 13.29
4/4/2021 11:15:00 AM 7.96 46.328 0.196 8.35 2.81 13.37
4/4/2021 11:30:00 AM 8.15 46.67 0.194 8.44 2.9 13.47
4/4/2021 11:45:00 AM 8.35 47.03 0.193 8.52 2.82 13.52
4/4/2021 12:00:00 PM 8.57 47.426 0.193 8.59 2.7 13.52
4/4/2021 12:15:00 PM 8.79 47.822 0.193 8.66 2.81 13.53
4/4/2021 12:30:00 PM 9.03 48.254 0.194 8.71 2.66 13.57
4/4/2021 12:45:00 PM 9.27 48.686 0.195 8.76 2.66 13.6
4/4/2021 1:00:00 PM 9.51 49.118 0.195 8.81 2.61 13.61
4/4/2021 1:15:00 PM 9.75 49.55 0.195 8.85 2.69 13.59
4/4/2021 1:30:00 PM 9.99 49.982 0.194 8.9 2.59 13.55
4/4/2021 1:45:00 PM 10.23 50.414 0.193 8.94 2.59 13.52
4/4/2021 2:00:00 PM 10.44 50.792 0.191 8.98 2.59 13.49
4/4/2021 2:15:00 PM 10.65 51.17 0.19 9.02 3.08 13.47
4/4/2021 2:30:00 PM 10.84 51.512 0.19 9.04 2.71 13.44
4/4/2021 2:45:00 PM 11.03 51.854 0.19 9.07 2.73 13.39
4/4/2021 3:00:00 PM 11.21 52.178 0.19 9.09 2.61 13.35
4/4/2021 3:15:00 PM 11.37 52.466 0.191 9.1 2.65 13.3
4/4/2021 3:30:00 PM 11.51 52.718 0.192 9.12 2.7 13.25
4/4/2021 3:45:00 PM 11.61 52.898 0.193 9.13 2.78 13.2
4/4/2021 4:00:00 PM 11.7 53.06 0.193 9.14 2.67 13.12
4/4/2021 4:15:00 PM 11.78 53.204 0.192 9.15 2.78 13.05
4/4/2021 4:30:00 PM 11.83 53.294 0.191 9.16 2.67 12.95
4/4/2021 4:45:00 PM 11.85 53.33 0.191 9.16 2.7 12.85
4/4/2021 5:00:00 PM 11.87 53.366 0.19 9.16 2.51 12.74
4/4/2021 5:15:00 PM 11.88 53.384 0.19 9.16 2.71 12.63
4/4/2021 5:30:00 PM 11.88 53.384 0.191 9.14 2.74 12.53
4/4/2021 5:45:00 PM 11.87 53.366 0.192 9.12 2.71 12.39
4/4/2021 6:00:00 PM 11.85 53.33 0.194 9.09 2.65 12.23
4/4/2021 6:15:00 PM 11.81 53.258 0.196 9.06 2.65 12.08
4/4/2021 6:30:00 PM 11.77 53.186 0.198 9.02 2.58 11.94
4/4/2021 6:45:00 PM 11.73 53.114 0.198 8.98 2.62 11.76
4/4/2021 7:00:00 PM 11.68 53.024 0.198 8.93 2.68 11.57
4/4/2021 7:15:00 PM 11.63 52.934 0.198 8.88 2.67 11.42
4/4/2021 7:30:00 PM 11.59 52.862 0.198 8.81 2.87 11.27
4/4/2021 7:45:00 PM 11.55 52.79 0.198 8.73 2.87 11.07
4/4/2021 8:00:00 PM 11.49 52.682 0.198 8.63 2.75 10.92
4/4/2021 8:15:00 PM 11.42 52.556 0.198 8.5 2.86 10.78
4/4/2021 8:30:00 PM 11.36 52.448 0.2 8.35 2.92 10.64
4/4/2021 8:45:00 PM 11.29 52.322 0.203 8.21 2.81 10.53
4/4/2021 9:00:00 PM 11.22 52.196 0.205 8.08 2.84 10.45
4/4/2021 9:15:00 PM 11.15 52.07 0.206 7.98 2.82 10.37
4/4/2021 9:30:00 PM 11.08 51.944 0.206 7.9 2.9 10.3
4/4/2021 9:45:00 PM 11 51.8 0.206 7.84 2.98 10.24
4/4/2021 10:00:00 PM 10.92 51.656 0.205 7.79 2.97 10.2
4/4/2021 10:15:00 PM 10.84 51.512 0.204 7.75 3.1 10.17
4/4/2021 10:30:00 PM 10.75 51.35 0.203 7.71 3 10.15
4/4/2021 10:45:00 PM 10.66 51.188 0.203 7.68 2.89 10.13
4/4/2021 11:00:00 PM 10.57 51.026 0.203 7.65 2.89 10.13
4/4/2021 11:15:00 PM 10.47 50.846 0.205 7.63 2.76 10.13
4/4/2021 11:30:00 PM 10.38 50.684 0.207 7.61 2.84 10.13
4/4/2021 11:45:00 PM 10.28 50.504 0.208 7.6 3.02 10.14
4/5/2021 12:00:00 AM 10.17 50.306 0.208 7.58 2.96 10.15
4/5/2021 12:15:00 AM 10.07 50.126 0.208 7.57 2.7 10.17
4/5/2021 12:30:00 AM 9.96 49.928 0.206 7.56 2.81 10.18
4/5/2021 12:45:00 AM 9.85 49.73 0.205 7.55 2.85 10.21
4/5/2021 1:00:00 AM 9.72 49.496 0.204 7.54 2.83 10.23
4/5/2021 1:15:00 AM 9.59 49.262 0.202 7.53 2.72 10.27
4/5/2021 1:30:00 AM 9.46 49.028 0.201 7.52 2.93 10.29
4/5/2021 1:45:00 AM 9.34 48.812 0.201 7.51 3.08 10.33
4/5/2021 2:00:00 AM 9.21 48.578 0.202 7.51 2.84 10.34
4/5/2021 2:15:00 AM 9.09 48.362 0.204 7.5 2.87 10.37
4/5/2021 2:30:00 AM 8.96 48.128 0.205 7.49 3.12 10.4
4/5/2021 2:45:00 AM 8.85 47.93 0.205 7.49 3 10.43
4/5/2021 3:00:00 AM 8.73 47.714 0.204 7.49 2.82 10.47
4/5/2021 3:15:00 AM 8.61 47.498 0.203 7.48 3.1 10.5
4/5/2021 3:30:00 AM 8.49 47.282 0.202 7.48 2.83 10.54
4/5/2021 3:45:00 AM 8.38 47.084 0.201 7.48 2.77 10.58
4/5/2021 4:00:00 AM 8.27 46.886 0.2 7.48 2.7 10.62
4/5/2021 4:15:00 AM 8.15 46.67 0.199 7.47 3.05 10.67
4/5/2021 4:30:00 AM 8.05 46.49 0.2 7.47 2.97 10.7
4/5/2021 4:45:00 AM 7.94 46.292 0.202 7.47 3.17 10.72
4/5/2021 5:00:00 AM 7.84 46.112 0.203 7.47 3.35 10.76
4/5/2021 5:15:00 AM 7.74 45.932 0.204 7.47 3.69 10.8
4/5/2021 5:30:00 AM 7.65 45.77 0.204 7.47 3.77 10.83
4/5/2021 5:45:00 AM 7.56 45.608 0.204 7.47 3.95 10.86
4/5/2021 6:00:00 AM 7.47 45.446 0.203 7.47 3.9 10.9
4/5/2021 6:15:00 AM 7.38 45.284 0.202 7.47 3.91 10.93
4/5/2021 6:30:00 AM 7.3 45.14 0.201 7.46 3.77 10.97
4/5/2021 6:45:00 AM 7.21 44.978 0.2 7.46 3.64 11.01
4/5/2021 7:00:00 AM 7.12 44.816 0.2 7.47 3.5 11.05
4/5/2021 7:15:00 AM 7.05 44.69 0.201 7.47 3.59 11.12
4/5/2021 7:30:00 AM 6.98 44.564 0.203 7.48 3.38 11.2
4/5/2021 7:45:00 AM 6.92 44.456 0.204 7.5 3.29 11.29
4/5/2021 8:00:00 AM 6.87 44.366 0.204 7.52 3.09 11.42
4/5/2021 8:15:00 AM 6.83 44.294 0.204 7.54 3.07 11.58
4/5/2021 8:30:00 AM 6.82 44.276 0.203 7.58 2.95 11.75
4/5/2021 8:45:00 AM 6.84 44.312 0.202 7.62 2.87 11.96
4/5/2021 9:00:00 AM 6.88 44.384 0.2 7.67 2.84 12.17
4/5/2021 9:15:00 AM 6.95 44.51 0.198 7.72 2.73 12.34
4/5/2021 9:30:00 AM 7.03 44.654 0.197 7.78 2.79 12.51
4/5/2021 9:45:00 AM 7.13 44.834 0.196 7.84 2.73 12.68
4/5/2021 10:00:00 AM 7.27 45.086 0.197 7.92 2.86 12.8
4/5/2021 10:15:00 AM 7.42 45.356 0.197 7.99 2.7 12.93
4/5/2021 10:30:00 AM 7.58 45.644 0.198 8.07 2.78 13.08
4/5/2021 10:45:00 AM 7.75 45.95 0.198 8.15 2.76 13.18
4/5/2021 11:00:00 AM 7.92 46.256 0.198 8.25 2.77 13.24
4/5/2021 11:15:00 AM 8.1 46.58 0.196 8.34 2.6 13.35
4/5/2021 11:30:00 AM 8.29 46.922 0.195 8.43 2.61 13.45
4/5/2021 11:45:00 AM 8.48 47.264 0.193 8.51 2.58 13.48
4/5/2021 12:00:00 PM 8.69 47.642 0.191 8.59 2.64 13.51
4/5/2021 12:15:00 PM 8.89 48.002 0.191 8.66 2.58 13.54
4/5/2021 12:30:00 PM 9.11 48.398 0.191 8.72 2.63 13.58
4/5/2021 12:45:00 PM 9.35 48.83 0.191 8.78 2.52 13.62
4/5/2021 1:00:00 PM 9.58 49.244 0.192 8.83 2.61 13.64
4/5/2021 1:15:00 PM 9.8 49.64 0.193 8.88 2.65 13.63
4/5/2021 1:30:00 PM 9.98 49.964 0.193 8.93 2.57 13.64
4/5/2021 1:45:00 PM 10.08 50.144 0.193 8.97 2.57 13.61
4/5/2021 2:00:00 PM 10.18 50.324 0.192 9.01 2.6 13.58
4/5/2021 2:15:00 PM 10.31 50.558 0.19 9.04 2.58 13.55
4/5/2021 2:30:00 PM 10.45 50.81 0.189 9.08 2.61 13.55
4/5/2021 2:45:00 PM 10.64 51.152 0.188 9.11 2.62 13.57
4/5/2021 3:00:00 PM 10.88 51.584 0.188 9.14 2.56 13.56
4/5/2021 3:15:00 PM 11.07 51.926 0.189 9.16 2.81 13.5
4/5/2021 3:30:00 PM 11.25 52.25 0.191 9.18 2.58 13.48
4/5/2021 3:45:00 PM 11.4 52.52 0.192 9.2 2.47 13.44
4/5/2021 4:00:00 PM 11.5 52.7 0.193 9.21 2.61 13.37
4/5/2021 4:15:00 PM 11.55 52.79 0.193 9.22 2.53 13.31
4/5/2021 4:30:00 PM 11.63 52.934 0.193 9.24 2.76 13.26
4/5/2021 4:45:00 PM 11.7 53.06 0.192 9.25 2.54 13.2
4/5/2021 5:00:00 PM 11.72 53.096 0.191 9.26 2.63 13.08
4/5/2021 5:15:00 PM 11.71 53.078 0.19 9.25 2.65 12.9
4/5/2021 5:30:00 PM 11.71 53.078 0.19 9.23 2.62 12.71
4/5/2021 5:45:00 PM 11.71 53.078 0.191 9.21 2.64 12.54
4/5/2021 6:00:00 PM 11.7 53.06 0.193 9.16 2.67 12.28
4/5/2021 6:15:00 PM 11.69 53.042 0.195 9.11 2.63 12.03
4/5/2021 6:30:00 PM 11.69 53.042 0.197 9.05 2.68 11.83
4/5/2021 6:45:00 PM 11.69 53.042 0.198 8.99 2.75 11.61
4/5/2021 7:00:00 PM 11.68 53.024 0.198 8.93 2.89 11.43
4/5/2021 7:15:00 PM 11.68 53.024 0.198 8.88 2.83 11.3
4/5/2021 7:30:00 PM 11.68 53.024 0.197 8.81 2.7 11.1
4/5/2021 7:45:00 PM 11.67 53.006 0.196 8.72 2.69 10.89
4/5/2021 8:00:00 PM 11.66 52.988 0.196 8.6 2.81 10.74
4/5/2021 8:15:00 PM 11.66 52.988 0.196 8.47 2.73 10.57
4/5/2021 8:30:00 PM 11.66 52.988 0.197 8.32 2.97 10.43
4/5/2021 8:45:00 PM 11.65 52.97 0.199 8.18 2.77 10.31
4/5/2021 9:00:00 PM 11.65 52.97 0.201 8.06 3 10.23
4/5/2021 9:15:00 PM 11.64 52.952 0.203 7.97 2.79 10.15
4/5/2021 9:30:00 PM 11.64 52.952 0.204 7.89 2.91 10.07
4/5/2021 9:45:00 PM 11.63 52.934 0.205 7.83 2.85 10
4/5/2021 10:00:00 PM 11.62 52.916 0.204 7.78 2.79 9.94
4/5/2021 10:15:00 PM 11.6 52.88 0.203 7.74 3.05 9.9
4/5/2021 10:30:00 PM 11.57 52.826 0.202 7.71 2.75 9.87
4/5/2021 10:45:00 PM 11.55 52.79 0.201 7.68 2.86 9.84
4/5/2021 11:00:00 PM 11.52 52.736 0.2 7.65 2.77 9.82
4/5/2021 11:15:00 PM 11.47 52.646 0.201 7.62 3.16 9.8
4/5/2021 11:30:00 PM 11.42 52.556 0.202 7.6 2.73 9.79
4/5/2021 11:45:00 PM 11.37 52.466 0.204 7.58 2.88 9.77
4/6/2021 12:00:00 AM 11.33 52.394 0.206 7.57 2.81 9.77
4/6/2021 12:15:00 AM 11.26 52.268 0.207 7.55 2.95 9.76
4/6/2021 12:30:00 AM 11.19 52.142 0.207 7.54 2.7 9.76
4/6/2021 12:45:00 AM 11.11 51.998 0.206 7.53 2.85 9.77
4/6/2021 1:00:00 AM 11.03 51.854 0.205 7.52 2.8 9.78
4/6/2021 1:15:00 AM 10.94 51.692 0.204 7.51 3.27 9.8
4/6/2021 1:30:00 AM 10.84 51.512 0.203 7.5 2.74 9.82
4/6/2021 1:45:00 AM 10.75 51.35 0.202 7.5 2.7 9.84
4/6/2021 2:00:00 AM 10.67 51.206 0.203 7.49 2.78 9.85
4/6/2021 2:15:00 AM 10.6 51.08 0.204 7.49 2.91 9.87
4/6/2021 2:30:00 AM 10.51 50.918 0.205 7.48 3.06 9.88
4/6/2021 2:45:00 AM 10.42 50.756 0.206 7.48 2.76 9.89
4/6/2021 3:00:00 AM 10.32 50.576 0.207 7.47 2.94 9.91
4/6/2021 3:15:00 AM 10.23 50.414 0.206 7.47 2.75 9.94
4/6/2021 3:30:00 AM 10.14 50.252 0.205 7.47 2.86 9.97
4/6/2021 3:45:00 AM 10.06 50.108 0.204 7.46 2.82 9.99
4/6/2021 4:00:00 AM 9.97 49.946 0.203 7.46 2.87 10.02
4/6/2021 4:15:00 AM 9.88 49.784 0.202 7.46 2.96 10.05
4/6/2021 4:30:00 AM 9.78 49.604 0.202 7.46 2.78 10.08
4/6/2021 4:45:00 AM 9.69 49.442 0.203 7.45 2.71 10.1
4/6/2021 5:00:00 AM 9.59 49.262 0.204 7.45 2.85 10.13
4/6/2021 5:15:00 AM 9.5 49.1 0.205 7.45 2.96 10.14
4/6/2021 5:30:00 AM 9.44 48.992 0.207 7.45 2.85 10.16
4/6/2021 5:45:00 AM 9.36 48.848 0.207 7.45 3.99 10.19
4/6/2021 6:00:00 AM 9.26 48.668 0.206 7.45 2.87 10.22
4/6/2021 6:15:00 AM 9.2 48.56 0.206 7.45 2.79 10.25
4/6/2021 6:30:00 AM 9.15 48.47 0.204 7.45 2.66 10.28
4/6/2021 6:45:00 AM 9.09 48.362 0.203 7.45 2.69 10.31
4/6/2021 7:00:00 AM 9.03 48.254 0.203 7.45 2.6 10.36
4/6/2021 7:15:00 AM 8.98 48.164 0.203 7.46 2.66 10.42
4/6/2021 7:30:00 AM 8.93 48.074 0.203 7.47 2.84 10.54
4/6/2021 7:45:00 AM 8.89 48.002 0.205 7.49 2.66 10.67
4/6/2021 8:00:00 AM 8.85 47.93 0.206 7.52 2.84 10.8
4/6/2021 8:15:00 AM 8.82 47.876 0.207 7.55 2.58 10.94
4/6/2021 8:30:00 AM 8.8 47.84 0.207 7.58 2.53 11.12
4/6/2021 8:45:00 AM 8.82 47.876 0.206 7.63 2.54 11.35
4/6/2021 9:00:00 AM 8.84 47.912 0.204 7.68 2.55 11.53
4/6/2021 9:15:00 AM 8.89 48.002 0.202 7.74 2.54 11.77
4/6/2021 9:30:00 AM 8.95 48.11 0.2 7.81 2.51 11.96
4/6/2021 9:45:00 AM 8.98 48.164 0.199 7.88 2.6 12.09
4/6/2021 10:00:00 AM 9.02 48.236 0.199 7.94 2.44 12.22
4/6/2021 10:15:00 AM 9.1 48.38 0.199 8.03 2.46 12.4
4/6/2021 10:30:00 AM 9.26 48.668 0.199 8.13 2.41 12.54
4/6/2021 10:45:00 AM 9.29 48.722 0.2 8.21 2.55 12.65
4/6/2021 11:00:00 AM 9.33 48.794 0.2 8.3 2.52 12.76
4/6/2021 11:15:00 AM 9.52 49.136 0.199 8.39 2.51 12.9
4/6/2021 11:30:00 AM 9.75 49.55 0.198 8.49 2.78 12.98
4/6/2021 11:45:00 AM 9.94 49.892 0.196 8.58 2.53 13.09
4/6/2021 12:00:00 PM 10.15 50.27 0.194 8.67 2.63 13.21
4/6/2021 12:15:00 PM 10.39 50.702 0.193 8.77 2.46 13.28
4/6/2021 12:30:00 PM 10.64 51.152 0.192 8.84 2.35 13.36
4/6/2021 12:45:00 PM 10.76 51.368 0.192 8.9 2.37 13.38
4/6/2021 1:00:00 PM 10.96 51.728 0.192 8.95 2.38 13.42
4/6/2021 1:15:00 PM 11.2 52.16 0.193 8.99 2.52 13.44
4/6/2021 1:30:00 PM 11.27 52.286 0.194 9.02 2.37 13.36
4/6/2021 1:45:00 PM 11.38 52.484 0.194 9.04 2.42 13.3
4/6/2021 2:00:00 PM 11.55 52.79 0.194 9.07 2.39 13.31
4/6/2021 2:15:00 PM 11.78 53.204 0.193 9.1 2.35 13.29
4/6/2021 2:30:00 PM 11.94 53.492 0.191 9.13 2.55 13.24
4/6/2021 2:45:00 PM 12.05 53.69 0.19 9.14 2.45 13.17
4/6/2021 3:00:00 PM 12.26 54.068 0.19 9.18 2.43 13.18
4/6/2021 3:15:00 PM 12.41 54.338 0.19 9.2 2.46 13.14
4/6/2021 3:30:00 PM 12.61 54.698 0.19 9.22 2.67 13.11
4/6/2021 3:45:00 PM 12.78 55.004 0.192 9.23 2.48 13.06
4/6/2021 4:00:00 PM 12.93 55.274 0.193 9.24 2.49 12.95
4/6/2021 4:15:00 PM 12.98 55.364 0.194 9.23 2.47 12.72
4/6/2021 4:30:00 PM 13.03 55.454 0.195 9.22 2.72 12.55
4/6/2021 4:45:00 PM 13.13 55.634 0.194 9.21 2.69 12.43
4/6/2021 5:00:00 PM 13.3 55.94 0.193 9.22 2.62 12.4
4/6/2021 5:15:00 PM 13.41 56.138 0.192 9.23 2.69 12.31
4/6/2021 5:30:00 PM 13.48 56.264 0.192 9.23 2.52 12.21
4/6/2021 5:45:00 PM 13.53 56.354 0.193 9.22 2.5 12.09
4/6/2021 6:00:00 PM 13.56 56.408 0.196 9.2 2.47 11.98
4/6/2021 6:15:00 PM 13.54 56.372 0.199 9.16 2.63 11.79
4/6/2021 6:30:00 PM 13.55 56.39 0.202 9.12 2.63 11.61
4/6/2021 6:45:00 PM 13.57 56.426 0.204 9.08 2.52 11.42
4/6/2021 7:00:00 PM 13.59 56.462 0.204 9.05 2.82 11.23
4/6/2021 7:15:00 PM 13.6 56.48 0.204 9 2.61 11.04
4/6/2021 7:30:00 PM 13.6 56.48 0.203 8.95 2.61 10.79
4/6/2021 7:45:00 PM 13.58 56.444 0.203 8.88 2.75 10.6
4/6/2021 8:00:00 PM 13.55 56.39 0.204 8.79 2.92 10.39
4/6/2021 8:15:00 PM 13.52 56.336 0.205 8.69 2.85 10.22
4/6/2021 8:30:00 PM 13.5 56.3 0.207 8.56 2.72 10.09
4/6/2021 8:45:00 PM 13.46 56.228 0.211 8.4 2.82 9.95
4/6/2021 9:00:00 PM 13.41 56.138 0.215 8.23 3.17 9.82
4/6/2021 9:15:00 PM 13.37 56.066 0.219 8.08 2.79 9.71
4/6/2021 9:30:00 PM 13.31 55.958 0.223 7.96 2.73 9.63
4/6/2021 9:45:00 PM 13.26 55.868 0.226 7.87 2.97 9.56
4/6/2021 10:00:00 PM 13.2 55.76 0.227 7.8 2.85 9.48
4/6/2021 10:15:00 PM 13.15 55.67 0.229 7.74 2.75 9.42
4/6/2021 10:30:00 PM 13.1 55.58 0.229 7.7 3.05 9.38
4/6/2021 10:45:00 PM 13.04 55.472 0.23 7.66 2.82 9.34
4/6/2021 11:00:00 PM 12.98 55.364 0.23 7.63 2.83 9.32
4/6/2021 11:15:00 PM 12.92 55.256 0.231 7.61 2.63 9.3
4/6/2021 11:30:00 PM 12.85 55.13 0.232 7.58 2.75 9.29
4/6/2021 11:45:00 PM 12.77 54.986 0.234 7.56 2.99 9.29
4/7/2021 12:00:00 AM 12.7 54.86 0.235 7.55 2.74 9.29
4/7/2021 12:15:00 AM 12.62 54.716 0.236 7.53 2.85 9.29
4/7/2021 12:30:00 AM 12.55 54.59 0.236 7.52 2.75 9.3
4/7/2021 12:45:00 AM 12.49 54.482 0.235 7.51 2.83 9.3
4/7/2021 1:00:00 AM 12.43 54.374 0.234 7.5 2.72 9.32
4/7/2021 1:15:00 AM 12.36 54.248 0.232 7.5 2.89 9.33
4/7/2021 1:30:00 AM 12.29 54.122 0.231 7.49 2.95 9.34
4/7/2021 1:45:00 AM 12.2 53.96 0.229 7.48 2.86 9.36
4/7/2021 2:00:00 AM 12.12 53.816 0.228 7.47 2.71 9.38
4/7/2021 2:15:00 AM 12.03 53.654 0.228 7.46 2.79 9.39
4/7/2021 2:30:00 AM 11.94 53.492 0.228 7.46 2.78 9.41
4/7/2021 2:45:00 AM 11.85 53.33 0.229 7.46 2.74 9.42
4/7/2021 3:00:00 AM 11.76 53.168 0.23 7.45 2.89 9.43
4/7/2021 3:15:00 AM 11.67 53.006 0.23 7.45 2.75 9.45
4/7/2021 3:30:00 AM 11.58 52.844 0.229 7.45 2.77 9.47
4/7/2021 3:45:00 AM 11.49 52.682 0.227 7.45 2.65 9.5
4/7/2021 4:00:00 AM 11.4 52.52 0.224 7.44 2.74 9.53
4/7/2021 4:15:00 AM 11.3 52.34 0.221 7.44 3.2 9.57
4/7/2021 4:30:00 AM 11.21 52.178 0.219 7.44 2.98 9.59
4/7/2021 4:45:00 AM 11.12 52.016 0.217 7.44 3.06 9.61
4/7/2021 5:00:00 AM 11.03 51.854 0.215 7.44 2.87 9.64
4/7/2021 5:15:00 AM 10.94 51.692 0.215 7.44 2.71 9.67
4/7/2021 5:30:00 AM 10.85 51.53 0.215 7.43 2.72 9.7
4/7/2021 5:45:00 AM 10.76 51.368 0.215 7.43 2.83 9.72
4/7/2021 6:00:00 AM 10.67 51.206 0.215 7.43 2.76 9.75
4/7/2021 6:15:00 AM 10.59 51.062 0.214 7.44 2.88 9.78
4/7/2021 6:30:00 AM 10.5 50.9 0.212 7.43 2.76 9.81
4/7/2021 6:45:00 AM 10.42 50.756 0.21 7.43 2.77 9.84
4/7/2021 7:00:00 AM 10.33 50.594 0.209 7.44 2.56 9.9
4/7/2021 7:15:00 AM 10.26 50.468 0.208 7.44 2.7 9.98
4/7/2021 7:30:00 AM 10.19 50.342 0.208 7.45 2.44 10.07
4/7/2021 7:45:00 AM 10.12 50.216 0.208 7.47 2.65 10.19
4/7/2021 8:00:00 AM 10.08 50.144 0.209 7.5 2.53 10.35
4/7/2021 8:15:00 AM 10.05 50.09 0.211 7.52 2.53 10.51
4/7/2021 8:30:00 AM 10.05 50.09 0.212 7.56 2.45 10.73
4/7/2021 8:45:00 AM 10.06 50.108 0.212 7.61 2.47 10.92
4/7/2021 9:00:00 AM 10.11 50.198 0.211 7.66 2.5 11.16
4/7/2021 9:15:00 AM 10.18 50.324 0.21 7.73 2.48 11.38
4/7/2021 9:30:00 AM 10.26 50.468 0.208 7.8 2.99 11.58
4/7/2021 9:45:00 AM 10.36 50.648 0.206 7.89 2.38 11.81
4/7/2021 10:00:00 AM 10.48 50.864 0.205 7.98 2.32 11.96
4/7/2021 10:15:00 AM 10.63 51.134 0.204 8.09 2.34 12.17
4/7/2021 10:30:00 AM 10.69 51.242 0.204 8.18 2.39 12.31
4/7/2021 10:45:00 AM 10.67 51.206 0.205 8.24 2.35 12.32
4/7/2021 11:00:00 AM 10.64 51.152 0.206 8.24 2.34 12.2
4/7/2021 11:15:00 AM 10.61 51.098 0.206 8.18 2.38 11.93
4/7/2021 11:30:00 AM 10.59 51.062 0.206 8.14 2.38 11.83
4/7/2021 11:45:00 AM 10.67 51.206 0.205 8.2 2.37 12
4/7/2021 12:00:00 PM 10.8 51.44 0.202 8.33 2.35 12.28
4/7/2021 12:15:00 PM 10.88 51.584 0.2 8.46 2.43 12.43
4/7/2021 12:30:00 PM 11.04 51.872 0.199 8.57 2.42 12.59
4/7/2021 12:45:00 PM 11.21 52.178 0.201 8.65 2.5 12.68
4/7/2021 1:00:00 PM 11.41 52.538 0.202 8.73 2.49 12.74
4/7/2021 1:15:00 PM 11.54 52.772 0.201 8.78 2.59 12.75
4/7/2021 1:30:00 PM 11.76 53.168 0.2 8.84 2.55 12.82
4/7/2021 1:45:00 PM 12.03 53.654 0.199 8.89 2.64 12.89
4/7/2021 2:00:00 PM 12.29 54.122 0.199 8.94 2.6 12.91
4/7/2021 2:15:00 PM 12.53 54.554 0.198 8.98 2.51 12.91
4/7/2021 2:30:00 PM 12.73 54.914 0.197 9.02 2.46 12.91
4/7/2021 2:45:00 PM 12.9 55.22 0.196 9.05 2.47 12.91
4/7/2021 3:00:00 PM 12.99 55.382 0.195 9.07 2.49 12.79
4/7/2021 3:15:00 PM 13.17 55.706 0.194 9.1 2.49 12.84
4/7/2021 3:30:00 PM 13.3 55.94 0.194 9.12 2.55 12.79
4/7/2021 3:45:00 PM 13.33 55.994 0.195 9.12 2.46 12.61
4/7/2021 4:00:00 PM 13.4 56.12 0.196 9.13 2.44 12.58
4/7/2021 4:15:00 PM 13.46 56.228 0.198 9.14 2.48 12.53
4/7/2021 4:30:00 PM 13.55 56.39 0.199 9.17 2.46 12.51
4/7/2021 4:45:00 PM 13.6 56.48 0.199 9.17 2.49 12.41
4/7/2021 5:00:00 PM 13.61 56.498 0.199 9.16 2.5 12.26
4/7/2021 5:15:00 PM 13.57 56.426 0.198 9.13 2.51 12
4/7/2021 5:30:00 PM 13.59 56.462 0.197 9.11 2.45 11.82
4/7/2021 5:45:00 PM 13.6 56.48 0.196 9.07 2.69 11.66
4/7/2021 6:00:00 PM 13.59 56.462 0.196 9.05 3.06 11.53
4/7/2021 6:15:00 PM 13.6 56.48 0.196 9.01 2.5 11.37
4/7/2021 6:30:00 PM 13.61 56.498 0.198 8.98 2.99 11.28
4/7/2021 6:45:00 PM 13.63 56.534 0.2 8.94 3.03 11.17
4/7/2021 7:00:00 PM 13.63 56.534 0.202 8.89 2.75 11.04
4/7/2021 7:15:00 PM 13.61 56.498 0.204 8.82 2.75 10.82
4/7/2021 7:30:00 PM 13.58 56.444 0.205 8.73 2.62 10.62
4/7/2021 7:45:00 PM 13.54 56.372 0.205 8.63 2.78 10.42
4/7/2021 8:00:00 PM 13.51 56.318 0.205 8.51 2.62 10.21
4/7/2021 8:15:00 PM 13.47 56.246 0.205 8.38 2.63 10.08
4/7/2021 8:30:00 PM 13.44 56.192 0.204 8.27 2.88 9.98
4/7/2021 8:45:00 PM 13.41 56.138 0.204 8.16 2.77 9.87
4/7/2021 9:00:00 PM 13.38 56.084 0.205 8.06 2.94 9.77
4/7/2021 9:15:00 PM 13.36 56.048 0.206 7.98 2.69 9.68
4/7/2021 9:30:00 PM 13.34 56.012 0.208 7.91 2.95 9.61
4/7/2021 9:45:00 PM 13.31 55.958 0.21 7.84 2.88 9.55
4/7/2021 10:00:00 PM 13.28 55.904 0.211 7.79 2.78 9.49
4/7/2021 10:15:00 PM 13.24 55.832 0.212 7.74 2.92 9.42
4/7/2021 10:30:00 PM 13.2 55.76 0.211 7.7 2.77 9.36
4/7/2021 10:45:00 PM 13.15 55.67 0.21 7.67 2.95 9.32
4/7/2021 11:00:00 PM 13.1 55.58 0.208 7.64 2.77 9.29
4/7/2021 11:15:00 PM 13.05 55.49 0.208 7.61 2.81 9.27
4/7/2021 11:30:00 PM 12.99 55.382 0.207 7.59 2.91 9.26
4/7/2021 11:45:00 PM 12.93 55.274 0.207 7.57 2.77 9.25
4/8/2021 12:00:00 AM 12.87 55.166 0.208 7.56 2.87 9.26
4/8/2021 12:15:00 AM 12.8 55.04 0.21 7.55 3.02 9.25
4/8/2021 12:30:00 AM 12.73 54.914 0.211 7.53 2.82 9.26
4/8/2021 12:45:00 AM 12.66 54.788 0.212 7.52 2.69 9.26
4/8/2021 1:00:00 AM 12.6 54.68 0.212 7.51 2.84 9.27
4/8/2021 1:15:00 AM 12.53 54.554 0.212 7.51 3.06 9.28
4/8/2021 1:30:00 AM 12.46 54.428 0.211 7.5 2.84 9.3
4/8/2021 1:45:00 AM 12.38 54.284 0.209 7.49 2.9 9.31
4/8/2021 2:00:00 AM 12.31 54.158 0.209 7.49 3.01 9.33
4/8/2021 2:15:00 AM 12.23 54.014 0.209 7.48 3.05 9.34
4/8/2021 2:30:00 AM 12.15 53.87 0.209 7.47 2.82 9.35
4/8/2021 2:45:00 AM 12.07 53.726 0.21 7.47 2.8 9.38
4/8/2021 3:00:00 AM 11.99 53.582 0.211 7.47 2.94 9.39
4/8/2021 3:15:00 AM 11.91 53.438 0.212 7.47 2.57 9.4
4/8/2021 3:30:00 AM 11.83 53.294 0.213 7.46 2.97 9.43
4/8/2021 3:45:00 AM 11.75 53.15 0.213 7.46 2.84 9.45
4/8/2021 4:00:00 AM 11.66 52.988 0.212 7.46 3.01 9.47
4/8/2021 4:15:00 AM 11.57 52.826 0.211 7.45 2.84 9.5
4/8/2021 4:30:00 AM 11.48 52.664 0.21 7.45 2.85 9.53
4/8/2021 4:45:00 AM 11.4 52.52 0.209 7.45 3.4 9.56
4/8/2021 5:00:00 AM 11.31 52.358 0.209 7.45 2.97 9.59
4/8/2021 5:15:00 AM 11.23 52.214 0.209 7.45 2.85 9.61
4/8/2021 5:30:00 AM 11.15 52.07 0.21 7.45 2.76 9.63
4/8/2021 5:45:00 AM 11.08 51.944 0.212 7.45 2.75 9.65
4/8/2021 6:00:00 AM 11.02 51.836 0.213 7.45 2.71 9.67
4/8/2021 6:15:00 AM 10.95 51.71 0.213 7.45 2.69 9.69
4/8/2021 6:30:00 AM 10.88 51.584 0.213 7.45 2.65 9.72
4/8/2021 6:45:00 AM 10.81 51.458 0.212 7.45 2.56 9.75
4/8/2021 7:00:00 AM 10.74 51.332 0.211 7.45 2.55 9.81
4/8/2021 7:15:00 AM 10.68 51.224 0.21 7.46 2.73 9.9
4/8/2021 7:30:00 AM 10.63 51.134 0.21 7.47 2.56 9.99
4/8/2021 7:45:00 AM 10.58 51.044 0.21 7.49 2.5 10.1
4/8/2021 8:00:00 AM 10.53 50.954 0.21 7.52 2.56 10.24
4/8/2021 8:15:00 AM 10.51 50.918 0.211 7.55 2.54 10.45
4/8/2021 8:30:00 AM 10.5 50.9 0.212 7.59 2.47 10.64
4/8/2021 8:45:00 AM 10.54 50.972 0.214 7.64 2.5 10.86
4/8/2021 9:00:00 AM 10.59 51.062 0.214 7.7 2.38 11.1
4/8/2021 9:15:00 AM 10.67 51.206 0.214 7.77 2.37 11.29
4/8/2021 9:30:00 AM 10.76 51.368 0.213 7.84 2.55 11.52
4/8/2021 9:45:00 AM 10.87 51.566 0.211 7.92 2.36 11.69
4/8/2021 10:00:00 AM 11.01 51.818 0.21 8.02 2.42 11.87
4/8/2021 10:15:00 AM 11.15 52.07 0.209 8.12 2.4 12.07
4/8/2021 10:30:00 AM 11.3 52.34 0.208 8.23 2.38 12.2
4/8/2021 10:45:00 AM 11.47 52.646 0.208 8.33 2.34 12.34
4/8/2021 11:00:00 AM 11.64 52.952 0.208 8.43 2.33 12.47
4/8/2021 11:15:00 AM 11.8 53.24 0.209 8.51 2.47 12.56
4/8/2021 11:30:00 AM 11.98 53.564 0.21 8.59 2.39 12.65
4/8/2021 11:45:00 AM 12.14 53.852 0.21 8.66 2.37 12.76
4/8/2021 12:00:00 PM 12.34 54.212 0.208 8.73 2.4 12.8
4/8/2021 12:15:00 PM 12.54 54.572 0.207 8.8 2.43 12.83
4/8/2021 12:30:00 PM 12.74 54.932 0.205 8.86 2.54 12.87
4/8/2021 12:45:00 PM 12.93 55.274 0.204 8.91 2.4 12.91
4/8/2021 1:00:00 PM 13.17 55.706 0.202 8.96 2.41 12.95
4/8/2021 1:15:00 PM 13.39 56.102 0.202 9.01 2.45 12.95
4/8/2021 1:30:00 PM 13.61 56.498 0.202 9.05 2.45 12.94
4/8/2021 1:45:00 PM 13.83 56.894 0.202 9.09 2.4 12.91
4/8/2021 2:00:00 PM 14.06 57.308 0.203 9.12 2.39 12.89
4/8/2021 2:15:00 PM 14.28 57.704 0.203 9.15 2.38 12.88
4/8/2021 2:30:00 PM 14.44 57.992 0.203 9.18 2.57 12.86
4/8/2021 2:45:00 PM 14.58 58.244 0.202 9.21 2.46 12.81
4/8/2021 3:00:00 PM 14.72 58.496 0.201 9.23 2.48 12.74
4/8/2021 3:15:00 PM 14.9 58.82 0.2 9.25 2.54 12.68
4/8/2021 3:30:00 PM 15.05 59.09 0.2 9.26 2.58 12.6
4/8/2021 3:45:00 PM 15.18 59.324 0.199 9.28 2.65 12.53
4/8/2021 4:00:00 PM 15.28 59.504 0.2 9.29 2.55 12.45
4/8/2021 4:15:00 PM 15.38 59.684 0.2 9.3 3 12.39
4/8/2021 4:30:00 PM 15.43 59.774 0.201 9.3 2.7 12.29
4/8/2021 4:45:00 PM 15.45 59.81 0.203 9.29 2.9 12.19
4/8/2021 5:00:00 PM 15.44 59.792 0.203 9.29 2.59 12.07
4/8/2021 5:15:00 PM 15.43 59.774 0.203 9.28 2.6 11.94
4/8/2021 5:30:00 PM 15.43 59.774 0.202 9.28 2.83 11.78
4/8/2021 5:45:00 PM 15.41 59.738 0.202 9.26 2.55 11.61
4/8/2021 6:00:00 PM 15.37 59.666 0.202 9.24 2.73 11.46
4/8/2021 6:15:00 PM 15.33 59.594 0.202 9.21 2.81 11.24
4/8/2021 6:30:00 PM 15.28 59.504 0.202 9.18 2.77 11.05
4/8/2021 6:45:00 PM 15.23 59.414 0.203 9.14 2.6 10.88
4/8/2021 7:00:00 PM 15.17 59.306 0.205 9.1 2.77 10.7
4/8/2021 7:15:00 PM 15.12 59.216 0.207 9.05 2.64 10.53
4/8/2021 7:30:00 PM 15.05 59.09 0.209 8.98 2.71 10.31
4/8/2021 7:45:00 PM 14.98 58.964 0.211 8.91 3.11 10.1
4/8/2021 8:00:00 PM 14.91 58.838 0.211 8.83 2.8 9.92
4/8/2021 8:15:00 PM 14.83 58.694 0.211 8.74 2.85 9.73
4/8/2021 8:30:00 PM 14.76 58.568 0.21 8.65 2.9 9.61
4/8/2021 8:45:00 PM 14.7 58.46 0.21 8.54 3.06 9.49
4/8/2021 9:00:00 PM 14.63 58.334 0.21 8.43 3.12 9.38
4/8/2021 9:15:00 PM 14.57 58.226 0.21 8.31 2.91 9.28
4/8/2021 9:30:00 PM 14.51 58.118 0.211 8.19 3.05 9.21
4/8/2021 9:45:00 PM 14.45 58.01 0.213 8.08 2.91 9.15
4/8/2021 10:00:00 PM 14.39 57.902 0.215 7.98 2.9 9.09
4/8/2021 10:15:00 PM 14.34 57.812 0.217 7.9 3.05 9.03
4/8/2021 10:30:00 PM 14.28 57.704 0.218 7.84 2.86 8.98
4/8/2021 10:45:00 PM 14.21 57.578 0.218 7.79 2.86 8.94
4/8/2021 11:00:00 PM 14.15 57.47 0.217 7.75 2.98 8.91
4/8/2021 11:15:00 PM 14.08 57.344 0.216 7.71 2.9 8.89
4/8/2021 11:30:00 PM 14.03 57.254 0.216 7.68 2.79 8.9
4/8/2021 11:45:00 PM 13.97 57.146 0.215 7.66 2.76 8.89
4/9/2021 12:00:00 AM 13.91 57.038 0.215 7.64 2.75 8.89
4/9/2021 12:15:00 AM 13.85 56.93 0.215 7.62 2.83 8.9
4/9/2021 12:30:00 AM 13.78 56.804 0.216 7.61 2.89 8.91
4/9/2021 12:45:00 AM 13.71 56.678 0.218 7.6 2.98 8.91
4/9/2021 1:00:00 AM 13.64 56.552 0.219 7.59 2.78 8.93
4/9/2021 1:15:00 AM 13.58 56.444 0.22 7.58 2.9 8.93
4/9/2021 1:30:00 AM 13.52 56.336 0.22 7.57 2.9 8.95
4/9/2021 1:45:00 AM 13.45 56.21 0.219 7.56 2.89 8.97
4/9/2021 2:00:00 AM 13.38 56.084 0.218 7.55 2.77 8.99
4/9/2021 2:15:00 AM 13.31 55.958 0.217 7.55 2.77 9.01
4/9/2021 2:30:00 AM 13.25 55.85 0.217 7.54 2.84 9.03
4/9/2021 2:45:00 AM 13.17 55.706 0.217 7.54 2.81 9.05
4/9/2021 3:00:00 AM 13.1 55.58 0.217 7.53 3.32 9.06
4/9/2021 3:15:00 AM 13.02 55.436 0.218 7.53 2.96 9.08
4/9/2021 3:30:00 AM 12.95 55.31 0.219 7.53 2.74 9.1
4/9/2021 3:45:00 AM 12.88 55.184 0.22 7.52 2.79 9.12
4/9/2021 4:00:00 AM 12.81 55.058 0.22 7.52 2.87 9.13
4/9/2021 4:15:00 AM 12.74 54.932 0.22 7.51 2.76 9.15
4/9/2021 4:30:00 AM 12.67 54.806 0.218 7.51 2.86 9.17
4/9/2021 4:45:00 AM 12.6 54.68 0.217 7.51 2.87 9.2

These are provisional data and have not been subject to a quality assurance process, but rather are the raw data reported by the instrument.
H: value is above sensor operating range
L: value is below sensor operating range
Offline: station is not reporting data
NC: parameter is not collected at site

Data Availability & Limitations

Uncertainty and potential for error can be associated with environmental monitoring data. Provisional data have not been subject to a quality assurance process, but rather are the raw data reported by the instrument. Data users are cautioned to consider carefully the provisional nature of the information before using it for decisions that concern personal or public safety or the conduct of business that involves substantial monetary or operational consequences.

Approved data are currently available by request by emailing: srbc@srbc.net. Approved data have been subject to a quality assurance process to correct for equipment or fouling drift. Data recorded during equipment malfunctions have been removed.

View Historical Stations that have been discontinued.